Time,TemperatureF,DewpointF,PressureIn,WindDirection,WindDirectionDegrees,WindSpeedMPH,WindSpeedGustMPH,Humidity,HourlyPrecipIn,Conditions,Clouds,dailyrainin,SoftwareType,DateUTC
2013-01-07 00:00:00,29.1,26.0,29.38,North,3,2.2,4.0,88,0.00,,,0.00,VWS V14.01,2013-01-07 05:00:00,
2013-01-07 00:01:00,29.1,26.0,29.38,North,4,3.1,3.1,88,0.00,,,0.00,VWS V14.01,2013-01-07 05:01:00,
2013-01-07 00:05:00,28.9,25.8,29.38,North,1,3.6,4.0,88,0.00,,,0.00,VWS V14.01,2013-01-07 05:05:00,
2013-01-07 00:07:00,28.9,25.8,29.38,North,1,3.6,3.6,88,0.00,,,0.00,VWS V14.01,2013-01-07 05:07:00,
2013-01-07 00:10:00,28.8,25.7,29.38,NE,38,0.0,0.0,88,0.00,,,0.00,VWS V14.01,2013-01-07 05:10:00,
2013-01-07 00:11:00,28.8,25.7,29.38,North,6,2.7,3.6,88,0.00,,,0.00,VWS V14.01,2013-01-07 05:11:00,
2013-01-07 00:12:00,28.8,25.7,29.38,North,6,2.7,3.6,88,0.00,,,0.00,VWS V14.01,2013-01-07 05:12:00,
2013-01-07 00:15:00,28.6,25.5,29.38,NE,54,3.1,3.1,88,0.00,,,0.00,VWS V14.01,2013-01-07 05:15:00,
2013-01-07 00:16:00,28.6,25.5,29.38,NE,54,2.7,2.7,88,0.00,,,0.00,VWS V14.01,2013-01-07 05:16:00,
2013-01-07 00:17:00,28.6,25.5,29.38,NNE,12,4.0,4.0,88,0.00,,,0.00,VWS V14.01,2013-01-07 05:17:00,
2013-01-07 00:20:00,28.6,25.5,29.38,North,8,2.2,4.0,88,0.00,,,0.00,VWS V14.01,2013-01-07 05:20:00,
2013-01-07 00:21:00,28.6,25.5,29.38,North,8,4.9,4.9,88,0.00,,,0.00,VWS V14.01,2013-01-07 05:21:00,
2013-01-07 00:22:00,28.4,25.3,29.38,North,0,4.0,4.0,88,0.00,,,0.00,VWS V14.01,2013-01-07 05:22:00,
2013-01-07 00:25:00,28.4,25.3,29.38,North,2,4.0,5.4,88,0.00,,,0.00,VWS V14.01,2013-01-07 05:25:00,
2013-01-07 00:26:00,28.4,25.3,29.38,North,2,2.7,3.6,88,0.00,,,0.00,VWS V14.01,2013-01-07 05:26:00,
2013-01-07 00:27:00,28.2,25.1,29.38,North,0,2.7,2.7,88,0.00,,,0.00,VWS V14.01,2013-01-07 05:27:00,
2013-01-07 00:30:00,28.2,25.1,29.38,North,357,4.0,4.0,88,0.00,,,0.00,VWS V14.01,2013-01-07 05:30:00,
2013-01-07 00:31:00,28.0,25.0,29.38,North,1,3.1,3.1,88,0.00,,,0.00,VWS V14.01,2013-01-07 05:31:00,
2013-01-07 00:32:00,28.0,25.0,29.38,North,1,3.1,3.1,88,0.00,,,0.00,VWS V14.01,2013-01-07 05:32:00,
2013-01-07 00:35:00,28.0,25.0,29.38,North,1,3.1,3.1,88,0.00,,,0.00,VWS V14.01,2013-01-07 05:35:00,
2013-01-07 00:36:00,27.9,24.8,29.38,North,2,2.7,3.1,88,0.00,,,0.00,VWS V14.01,2013-01-07 05:36:00,
2013-01-07 00:37:00,27.9,24.8,29.38,North,2,3.6,3.6,88,0.00,,,0.00,VWS V14.01,2013-01-07 05:37:00,
2013-01-07 00:40:00,27.9,24.8,29.38,North,2,2.2,2.2,88,0.00,,,0.00,VWS V14.01,2013-01-07 05:40:00,
2013-01-07 00:41:00,27.7,24.6,29.38,North,2,0.0,2.2,88,0.00,,,0.00,VWS V14.01,2013-01-07 05:41:00,
2013-01-07 00:42:00,27.7,24.6,29.38,North,2,0.0,0.0,88,0.00,,,0.00,VWS V14.01,2013-01-07 05:42:00,
2013-01-07 00:45:00,27.5,24.4,29.38,North,2,0.0,0.0,88,0.00,,,0.00,VWS V14.01,2013-01-07 05:45:00,
2013-01-07 00:46:00,27.5,24.4,29.38,North,2,0.0,0.0,88,0.00,,,0.00,VWS V14.01,2013-01-07 05:46:00,
2013-01-07 00:48:00,27.3,24.2,29.38,North,2,0.0,0.0,88,0.00,,,0.00,VWS V14.01,2013-01-07 05:48:00,
2013-01-07 00:50:00,27.1,24.1,29.38,North,2,0.0,0.0,88,0.00,,,0.00,VWS V14.01,2013-01-07 05:50:00,
2013-01-07 00:51:00,27.1,24.1,29.38,North,2,0.0,0.0,88,0.00,,,0.00,VWS V14.01,2013-01-07 05:51:00,
2013-01-07 00:53:00,27.0,23.9,29.38,North,2,0.0,0.0,88,0.00,,,0.00,VWS V14.01,2013-01-07 05:53:00,
2013-01-07 00:55:00,27.0,23.9,29.38,North,2,0.0,0.0,88,0.00,,,0.00,VWS V14.01,2013-01-07 05:55:00,
2013-01-07 00:56:00,26.8,23.7,29.38,North,2,0.0,0.0,88,0.00,,,0.00,VWS V14.01,2013-01-07 05:56:00,
2013-01-07 00:58:00,26.8,23.7,29.38,North,2,0.0,0.0,88,0.00,,,0.00,VWS V14.01,2013-01-07 05:58:00,
2013-01-07 01:00:00,26.6,23.5,29.38,North,2,0.0,0.0,88,0.00,,,0.00,VWS V14.01,2013-01-07 06:00:00,
2013-01-07 01:01:00,26.4,23.4,29.38,North,2,0.0,0.0,88,0.00,,,0.00,VWS V14.01,2013-01-07 06:01:00,
2013-01-07 01:03:00,26.2,23.2,29.38,North,2,0.0,0.0,88,0.00,,,0.00,VWS V14.01,2013-01-07 06:03:00,
2013-01-07 01:05:00,26.1,23.0,29.38,North,2,0.0,0.0,88,0.00,,,0.00,VWS V14.01,2013-01-07 06:05:00,
2013-01-07 01:06:00,26.1,23.0,29.38,North,2,0.0,0.0,88,0.00,,,0.00,VWS V14.01,2013-01-07 06:06:00,
2013-01-07 01:08:00,25.9,22.8,29.38,North,2,0.0,0.0,88,0.00,,,0.00,VWS V14.01,2013-01-07 06:08:00,
2013-01-07 01:10:00,25.7,22.9,29.38,North,2,3.1,3.1,89,0.00,,,0.00,VWS V14.01,2013-01-07 06:10:00,
2013-01-07 01:11:00,25.7,22.9,29.38,North,2,4.0,4.0,89,0.00,,,0.00,VWS V14.01,2013-01-07 06:11:00,
2013-01-07 01:12:00,25.7,22.9,29.38,North,2,0.0,4.0,89,0.00,,,0.00,VWS V14.01,2013-01-07 06:12:00,
2013-01-07 01:13:00,25.7,22.9,29.38,North,2,2.7,2.7,89,0.00,,,0.00,VWS V14.01,2013-01-07 06:13:00,
2013-01-07 01:15:00,25.7,22.9,29.38,North,2,0.0,0.0,89,0.00,,,0.00,VWS V14.01,2013-01-07 06:15:00,
2013-01-07 01:17:00,25.5,22.7,29.38,North,2,0.0,0.0,89,0.00,,,0.00,VWS V14.01,2013-01-07 06:17:00,
2013-01-07 01:18:00,25.3,22.6,29.38,North,2,0.0,0.0,89,0.00,,,0.00,VWS V14.01,2013-01-07 06:18:00,
2013-01-07 01:20:00,25.3,22.6,29.38,North,2,2.7,2.7,89,0.00,,,0.00,VWS V14.01,2013-01-07 06:20:00,
2013-01-07 01:22:00,25.2,22.4,29.38,North,2,2.7,2.7,89,0.00,,,0.00,VWS V14.01,2013-01-07 06:22:00,
2013-01-07 01:23:00,25.2,22.4,29.38,North,2,2.7,2.7,89,0.00,,,0.00,VWS V14.01,2013-01-07 06:23:00,
2013-01-07 01:25:00,25.2,22.4,29.38,North,2,4.0,4.0,89,0.00,,,0.00,VWS V14.01,2013-01-07 06:25:00,
2013-01-07 01:27:00,25.0,22.2,29.38,North,2,3.1,4.0,89,0.00,,,0.00,VWS V14.01,2013-01-07 06:27:00,
2013-01-07 01:28:00,25.0,22.2,29.38,North,2,3.1,3.1,89,0.00,,,0.00,VWS V14.01,2013-01-07 06:28:00,
2013-01-07 01:31:00,25.0,22.2,29.41,North,2,2.7,3.1,89,0.00,,,0.00,VWS V14.01,2013-01-07 06:31:00,
2013-01-07 01:32:00,25.0,22.2,29.41,North,2,2.7,2.7,89,0.00,,,0.00,VWS V14.01,2013-01-07 06:32:00,
2013-01-07 01:33:00,25.0,22.2,29.41,North,2,2.7,3.6,89,0.00,,,0.00,VWS V14.01,2013-01-07 06:33:00,
2013-01-07 01:36:00,24.8,22.3,29.41,North,2,3.1,3.1,90,0.00,,,0.00,VWS V14.01,2013-01-07 06:36:00,
2013-01-07 01:37:00,24.8,22.3,29.41,North,2,2.7,3.1,90,0.00,,,0.00,VWS V14.01,2013-01-07 06:37:00,
2013-01-07 01:38:00,24.8,22.3,29.41,North,2,2.2,3.1,90,0.00,,,0.00,VWS V14.01,2013-01-07 06:38:00,
2013-01-07 01:41:00,24.6,22.1,29.41,North,2,2.7,2.7,90,0.00,,,0.00,VWS V14.01,2013-01-07 06:41:00,
2013-01-07 01:42:00,24.6,22.1,29.41,North,2,2.2,2.7,90,0.00,,,0.00,VWS V14.01,2013-01-07 06:42:00,
2013-01-07 01:43:00,24.6,22.1,29.41,North,2,2.2,2.7,90,0.00,,,0.00,VWS V14.01,2013-01-07 06:43:00,
2013-01-07 01:46:00,24.4,21.9,29.38,North,2,2.7,2.7,90,0.00,,,0.00,VWS V14.01,2013-01-07 06:46:00,
2013-01-07 01:47:00,24.4,21.9,29.38,North,2,3.1,3.1,90,0.00,,,0.00,VWS V14.01,2013-01-07 06:47:00,
2013-01-07 01:49:00,24.4,21.9,29.38,North,2,4.0,4.0,90,0.00,,,0.00,VWS V14.01,2013-01-07 06:49:00,
2013-01-07 01:51:00,24.4,21.9,29.38,North,2,4.0,4.0,90,0.00,,,0.00,VWS V14.01,2013-01-07 06:51:00,
2013-01-07 01:52:00,24.4,21.9,29.38,North,2,2.7,4.0,90,0.00,,,0.00,VWS V14.01,2013-01-07 06:52:00,
2013-01-07 01:54:00,24.4,21.9,29.38,North,2,2.7,2.7,90,0.00,,,0.00,VWS V14.01,2013-01-07 06:54:00,
2013-01-07 01:57:00,24.4,21.9,29.38,North,2,2.7,2.7,90,0.00,,,0.00,VWS V14.01,2013-01-07 06:57:00,
2013-01-07 01:58:00,24.4,21.9,29.38,North,2,3.6,3.6,90,0.00,,,0.00,VWS V14.01,2013-01-07 06:58:00,
2013-01-07 01:59:00,24.4,22.2,29.38,North,2,3.6,4.9,91,0.00,,,0.00,VWS V14.01,2013-01-07 06:59:00,
2013-01-07 02:02:00,24.3,22.0,29.38,North,2,3.1,3.1,91,0.00,,,0.00,VWS V14.01,2013-01-07 07:02:00,
2013-01-07 02:03:00,24.3,22.0,29.38,North,2,2.7,3.1,91,0.00,,,0.00,VWS V14.01,2013-01-07 07:03:00,
2013-01-07 02:04:00,24.3,22.0,29.38,North,2,3.6,3.6,91,0.00,,,0.00,VWS V14.01,2013-01-07 07:04:00,
2013-01-07 02:07:00,24.3,22.0,29.38,North,357,0.0,2.2,91,0.00,,,0.00,VWS V14.01,2013-01-07 07:07:00,
2013-01-07 02:08:00,24.1,21.8,29.38,North,357,0.0,0.0,91,0.00,,,0.00,VWS V14.01,2013-01-07 07:08:00,
2013-01-07 02:09:00,24.1,21.8,29.38,North,357,4.9,4.9,91,0.00,,,0.00,VWS V14.01,2013-01-07 07:09:00,
2013-01-07 02:12:00,24.1,21.8,29.38,NNW,342,2.7,3.1,91,0.00,,,0.00,VWS V14.01,2013-01-07 07:12:00,
2013-01-07 02:13:00,24.1,21.8,29.38,North,353,2.7,4.9,91,0.00,,,0.00,VWS V14.01,2013-01-07 07:13:00,
2013-01-07 02:14:00,23.9,21.7,29.38,North,353,3.1,4.0,91,0.00,,,0.00,VWS V14.01,2013-01-07 07:14:00,
2013-01-07 02:17:00,23.9,21.7,29.38,North,357,3.6,3.6,91,0.00,,,0.00,VWS V14.01,2013-01-07 07:17:00,
2013-01-07 02:18:00,23.9,21.7,29.41,North,357,3.6,3.6,91,0.00,,,0.00,VWS V14.01,2013-01-07 07:18:00,
2013-01-07 02:19:00,23.9,21.7,29.41,North,353,4.0,4.0,91,0.00,,,0.00,VWS V14.01,2013-01-07 07:19:00,
2013-01-07 02:22:00,23.7,21.5,29.41,North,353,2.7,2.7,91,0.00,,,0.00,VWS V14.01,2013-01-07 07:22:00,
2013-01-07 02:23:00,23.7,21.7,29.41,North,353,0.0,2.7,92,0.00,,,0.00,VWS V14.01,2013-01-07 07:23:00,
2013-01-07 02:24:00,23.7,21.7,29.41,NNW,348,0.0,0.0,92,0.00,,,0.00,VWS V14.01,2013-01-07 07:24:00,
2013-01-07 02:27:00,23.5,21.6,29.41,NNW,348,3.1,3.1,92,0.00,,,0.00,VWS V14.01,2013-01-07 07:27:00,
2013-01-07 02:28:00,23.5,21.6,29.41,NNW,348,3.1,3.1,92,0.00,,,0.00,VWS V14.01,2013-01-07 07:28:00,
2013-01-07 02:29:00,23.5,21.6,29.41,NNW,348,4.0,4.0,92,0.00,,,0.00,VWS V14.01,2013-01-07 07:29:00,
2013-01-07 02:32:00,23.5,21.6,29.41,North,350,2.7,3.1,92,0.00,,,0.00,VWS V14.01,2013-01-07 07:32:00,
2013-01-07 02:33:00,23.5,21.6,29.41,North,350,3.6,3.6,92,0.00,,,0.00,VWS V14.01,2013-01-07 07:33:00,
2013-01-07 02:34:00,23.4,21.4,29.41,North,350,3.6,3.6,92,0.00,,,0.00,VWS V14.01,2013-01-07 07:34:00,
2013-01-07 02:37:00,23.4,21.4,29.41,North,357,2.7,3.6,92,0.00,,,0.00,VWS V14.01,2013-01-07 07:37:00,
2013-01-07 02:38:00,23.4,21.4,29.41,North,357,2.7,2.7,92,0.00,,,0.00,VWS V14.01,2013-01-07 07:38:00,
2013-01-07 02:39:00,23.2,21.2,29.41,North,0,3.1,3.1,92,0.00,,,0.00,VWS V14.01,2013-01-07 07:39:00,
2013-01-07 02:42:00,23.2,21.2,29.41,North,357,2.7,2.7,92,0.00,,,0.00,VWS V14.01,2013-01-07 07:42:00,
2013-01-07 02:43:00,23.0,21.3,29.41,North,357,0.0,0.0,93,0.00,,,0.00,VWS V14.01,2013-01-07 07:43:00,
2013-01-07 02:44:00,23.0,21.3,29.41,North,357,0.0,0.0,93,0.00,,,0.00,VWS V14.01,2013-01-07 07:44:00,
2013-01-07 02:47:00,23.0,21.3,29.41,North,357,4.0,4.0,93,0.00,,,0.00,VWS V14.01,2013-01-07 07:47:00,
2013-01-07 02:48:00,23.0,21.3,29.41,North,357,2.7,2.7,93,0.00,,,0.00,VWS V14.01,2013-01-07 07:48:00,
2013-01-07 02:49:00,22.8,21.1,29.41,North,0,3.1,3.1,93,0.00,,,0.00,VWS V14.01,2013-01-07 07:49:00,
2013-01-07 02:52:00,22.8,21.1,29.41,North,357,3.1,3.6,93,0.00,,,0.00,VWS V14.01,2013-01-07 07:52:00,
2013-01-07 02:53:00,22.8,21.1,29.41,North,0,4.9,4.9,93,0.00,,,0.00,VWS V14.01,2013-01-07 07:53:00,
2013-01-07 02:55:00,22.8,21.1,29.41,North,0,2.7,4.9,93,0.00,,,0.00,VWS V14.01,2013-01-07 07:55:00,
2013-01-07 02:57:00,22.6,20.9,29.41,North,0,2.7,2.7,93,0.00,,,0.00,VWS V14.01,2013-01-07 07:57:00,
2013-01-07 02:59:00,22.6,20.9,29.41,North,0,3.6,3.6,93,0.00,,,0.00,VWS V14.01,2013-01-07 07:59:00,
2013-01-07 03:00:00,22.6,20.9,29.41,North,0,3.1,3.1,93,0.00,,,0.00,VWS V14.01,2013-01-07 08:00:00,
2013-01-07 03:02:00,22.6,21.2,29.41,North,0,5.4,5.4,94,0.00,,,0.00,VWS V14.01,2013-01-07 08:02:00,
2013-01-07 03:03:00,22.6,21.2,29.41,North,0,5.4,5.4,94,0.00,,,0.00,VWS V14.01,2013-01-07 08:03:00,
2013-01-07 03:04:00,22.6,21.2,29.41,North,0,2.7,5.4,94,0.00,,,0.00,VWS V14.01,2013-01-07 08:04:00,
2013-01-07 03:05:00,22.6,21.2,29.41,North,0,3.1,3.1,94,0.00,,,0.00,VWS V14.01,2013-01-07 08:05:00,
2013-01-07 03:08:00,22.5,21.0,29.41,North,0,2.7,2.7,94,0.00,,,0.00,VWS V14.01,2013-01-07 08:08:00,
2013-01-07 03:09:00,22.5,21.0,29.41,North,357,2.2,2.7,94,0.00,,,0.00,VWS V14.01,2013-01-07 08:09:00,
2013-01-07 03:10:00,22.5,21.0,29.41,North,357,2.7,2.7,94,0.00,,,0.00,VWS V14.01,2013-01-07 08:10:00,
2013-01-07 03:13:00,22.3,20.8,29.41,North,357,2.7,2.7,94,0.00,,,0.00,VWS V14.01,2013-01-07 08:13:00,
2013-01-07 03:14:00,22.3,20.8,29.41,North,357,2.7,2.7,94,0.00,,,0.00,VWS V14.01,2013-01-07 08:14:00,
2013-01-07 03:15:00,22.3,20.8,29.41,North,357,2.7,2.7,94,0.00,,,0.00,VWS V14.01,2013-01-07 08:15:00,
2013-01-07 03:18:00,22.3,20.8,29.41,North,357,2.2,2.2,94,0.00,,,0.00,VWS V14.01,2013-01-07 08:18:00,
2013-01-07 03:19:00,22.3,20.8,29.41,NNW,345,4.5,4.5,94,0.00,,,0.00,VWS V14.01,2013-01-07 08:19:00,
2013-01-07 03:20:00,21.9,20.5,29.41,NNW,343,3.6,4.5,94,0.00,,,0.00,VWS V14.01,2013-01-07 08:20:00,
2013-01-07 03:23:00,21.9,20.5,29.41,NNW,345,3.1,3.1,94,0.00,,,0.00,VWS V14.01,2013-01-07 08:23:00,
2013-01-07 03:24:00,21.9,20.5,29.41,NNW,345,3.1,3.1,94,0.00,,,0.00,VWS V14.01,2013-01-07 08:24:00,
2013-01-07 03:25:00,21.7,20.3,29.41,North,353,2.7,3.1,94,0.00,,,0.00,VWS V14.01,2013-01-07 08:25:00,
2013-01-07 03:28:00,21.7,20.3,29.41,North,353,3.1,3.1,94,0.00,,,0.00,VWS V14.01,2013-01-07 08:28:00,
2013-01-07 03:29:00,21.6,20.1,29.41,North,353,2.7,2.7,94,0.00,,,0.00,VWS V14.01,2013-01-07 08:29:00,
2013-01-07 03:30:00,21.6,20.1,29.41,North,353,2.7,2.7,94,0.00,,,0.00,VWS V14.01,2013-01-07 08:30:00,
2013-01-07 03:33:00,21.4,19.9,29.41,North,353,2.2,2.7,94,0.00,,,0.00,VWS V14.01,2013-01-07 08:33:00,
2013-01-07 03:34:00,21.4,19.9,29.41,North,350,2.7,2.7,94,0.00,,,0.00,VWS V14.01,2013-01-07 08:34:00,
2013-01-07 03:35:00,21.4,19.9,29.41,North,353,2.7,2.7,94,0.00,,,0.00,VWS V14.01,2013-01-07 08:35:00,
2013-01-07 03:38:00,21.4,19.9,29.41,North,353,0.0,2.2,94,0.00,,,0.00,VWS V14.01,2013-01-07 08:38:00,
2013-01-07 03:39:00,21.4,19.9,29.41,North,353,0.0,0.0,94,0.00,,,0.00,VWS V14.01,2013-01-07 08:39:00,
2013-01-07 03:40:00,21.4,19.9,29.41,North,353,3.1,3.1,94,0.00,,,0.00,VWS V14.01,2013-01-07 08:40:00,
2013-01-07 03:43:00,21.2,20.0,29.41,North,353,3.1,3.1,95,0.00,,,0.00,VWS V14.01,2013-01-07 08:43:00,
2013-01-07 03:44:00,21.2,20.0,29.41,North,353,2.2,2.2,95,0.00,,,0.00,VWS V14.01,2013-01-07 08:44:00,
2013-01-07 03:45:00,21.2,20.0,29.41,North,353,2.7,2.7,95,0.00,,,0.00,VWS V14.01,2013-01-07 08:45:00,
2013-01-07 03:48:00,21.2,20.0,29.41,North,353,4.0,4.0,95,0.00,,,0.00,VWS V14.01,2013-01-07 08:48:00,
2013-01-07 03:49:00,21.2,20.0,29.41,North,349,3.1,3.1,95,0.00,,,0.00,VWS V14.01,2013-01-07 08:49:00,
2013-01-07 03:51:00,21.2,20.0,29.44,North,349,3.1,3.1,95,0.00,,,0.00,VWS V14.01,2013-01-07 08:51:00,
2013-01-07 03:53:00,21.2,20.0,29.44,North,349,3.1,3.1,95,0.00,,,0.00,VWS V14.01,2013-01-07 08:53:00,
2013-01-07 03:55:00,21.2,20.0,29.44,NNW,338,4.0,4.0,95,0.00,,,0.00,VWS V14.01,2013-01-07 08:55:00,
2013-01-07 03:56:00,21.0,19.8,29.44,NNW,338,4.0,4.0,95,0.00,,,0.00,VWS V14.01,2013-01-07 08:56:00,
2013-01-07 03:58:00,21.0,20.1,29.44,NNW,338,2.7,2.7,96,0.00,,,0.00,VWS V14.01,2013-01-07 08:58:00,
2013-01-07 04:00:00,21.0,20.1,29.44,NNW,340,2.7,2.7,96,0.00,,,0.00,VWS V14.01,2013-01-07 09:00:00,
2013-01-07 04:01:00,21.0,19.8,29.44,NNW,340,2.7,2.7,95,0.00,,,0.00,VWS V14.01,2013-01-07 09:01:00,
2013-01-07 04:03:00,20.8,19.6,29.44,NNW,340,3.6,3.6,95,0.00,,,0.00,VWS V14.01,2013-01-07 09:03:00,
2013-01-07 04:04:00,20.8,19.6,29.44,NNW,339,2.7,3.6,95,0.00,,,0.00,VWS V14.01,2013-01-07 09:04:00,
2013-01-07 04:05:00,20.8,19.6,29.44,NNW,339,2.7,2.7,95,0.00,,,0.00,VWS V14.01,2013-01-07 09:05:00,
2013-01-07 04:06:00,20.8,19.6,29.44,NNW,339,3.1,3.1,95,0.00,,,0.00,VWS V14.01,2013-01-07 09:06:00,
2013-01-07 04:08:00,20.7,19.7,29.44,NNW,339,2.2,2.2,96,0.00,,,0.00,VWS V14.01,2013-01-07 09:08:00,
2013-01-07 04:09:00,20.7,19.7,29.44,NNW,339,3.1,3.1,96,0.00,,,0.00,VWS V14.01,2013-01-07 09:09:00,
2013-01-07 04:10:00,20.7,19.7,29.44,NNW,339,2.7,3.6,96,0.00,,,0.00,VWS V14.01,2013-01-07 09:10:00,
2013-01-07 04:11:00,20.7,19.7,29.44,NNW,339,2.2,3.1,96,0.00,,,0.00,VWS V14.01,2013-01-07 09:11:00,
2013-01-07 04:14:00,20.5,19.5,29.44,NNW,339,2.7,2.7,96,0.00,,,0.00,VWS V14.01,2013-01-07 09:14:00,
2013-01-07 04:15:00,20.5,19.5,29.44,NNW,339,4.0,4.0,96,0.00,,,0.00,VWS V14.01,2013-01-07 09:15:00,
2013-01-07 04:16:00,20.3,19.3,29.44,NNW,339,3.1,4.0,96,0.00,,,0.00,VWS V14.01,2013-01-07 09:16:00,
2013-01-07 04:19:00,20.3,19.3,29.44,NNW,339,2.7,2.7,96,0.00,,,0.00,VWS V14.01,2013-01-07 09:19:00,
2013-01-07 04:20:00,20.3,19.3,29.44,NNW,339,2.7,4.0,96,0.00,,,0.00,VWS V14.01,2013-01-07 09:20:00,
2013-01-07 04:21:00,20.3,19.3,29.44,NNW,339,2.7,2.7,96,0.00,,,0.00,VWS V14.01,2013-01-07 09:21:00,
2013-01-07 04:24:00,20.3,19.3,29.44,NNW,339,2.7,2.7,96,0.00,,,0.00,VWS V14.01,2013-01-07 09:24:00,
2013-01-07 04:25:00,20.1,19.2,29.44,NNW,339,2.7,2.7,96,0.00,,,0.00,VWS V14.01,2013-01-07 09:25:00,
2013-01-07 04:26:00,20.1,19.2,29.44,NNW,339,3.1,3.1,96,0.00,,,0.00,VWS V14.01,2013-01-07 09:26:00,
2013-01-07 04:29:00,20.1,19.2,29.44,NNW,339,2.2,2.2,96,0.00,,,0.00,VWS V14.01,2013-01-07 09:29:00,
2013-01-07 04:30:00,20.1,19.2,29.44,NNW,339,2.7,2.7,96,0.00,,,0.00,VWS V14.01,2013-01-07 09:30:00,
2013-01-07 04:31:00,20.1,19.2,29.44,NNW,339,2.2,2.7,96,0.00,,,0.00,VWS V14.01,2013-01-07 09:31:00,
2013-01-07 04:34:00,19.9,19.0,29.44,NNW,339,2.2,2.2,96,0.00,,,0.00,VWS V14.01,2013-01-07 09:34:00,
2013-01-07 04:36:00,19.9,19.2,29.44,NNW,339,2.7,3.1,97,0.00,,,0.00,VWS V14.01,2013-01-07 09:36:00,
2013-01-07 04:39:00,19.9,19.2,29.44,NNW,339,0.0,2.2,97,0.00,,,0.00,VWS V14.01,2013-01-07 09:39:00,
2013-01-07 04:41:00,19.9,19.2,29.44,NNW,339,3.6,3.6,97,0.00,,,0.00,VWS V14.01,2013-01-07 09:41:00,
2013-01-07 04:44:00,19.8,19.0,29.44,NNW,339,2.2,2.7,97,0.00,,,0.00,VWS V14.01,2013-01-07 09:44:00,
2013-01-07 04:46:00,19.8,19.0,29.44,NNW,339,2.2,2.2,97,0.00,,,0.00,VWS V14.01,2013-01-07 09:46:00,
2013-01-07 04:47:00,19.8,19.0,29.44,NNW,339,2.2,2.2,97,0.00,,,0.00,VWS V14.01,2013-01-07 09:47:00,
2013-01-07 04:49:00,19.6,18.9,29.44,NNW,339,2.2,2.7,97,0.00,,,0.00,VWS V14.01,2013-01-07 09:49:00,
2013-01-07 04:51:00,19.6,18.9,29.44,NNW,339,2.7,3.1,97,0.00,,,0.00,VWS V14.01,2013-01-07 09:51:00,
2013-01-07 04:52:00,19.6,18.9,29.44,NNW,339,2.2,2.7,97,0.00,,,0.00,VWS V14.01,2013-01-07 09:52:00,
2013-01-07 04:54:00,19.6,18.9,29.44,NNW,339,0.0,2.2,97,0.00,,,0.00,VWS V14.01,2013-01-07 09:54:00,
2013-01-07 04:56:00,19.6,18.9,29.44,NNW,339,2.2,2.2,97,0.00,,,0.00,VWS V14.01,2013-01-07 09:56:00,
2013-01-07 04:57:00,19.6,18.9,29.44,NNW,339,0.0,2.2,97,0.00,,,0.00,VWS V14.01,2013-01-07 09:57:00,
2013-01-07 04:59:00,19.4,18.9,29.44,NNW,339,0.0,0.0,98,0.00,,,0.00,VWS V14.01,2013-01-07 09:59:00,
2013-01-07 05:01:00,19.4,18.9,29.44,NNW,339,2.7,2.7,98,0.00,,,0.00,VWS V14.01,2013-01-07 10:01:00,
2013-01-07 05:02:00,19.4,18.9,29.44,NNW,339,2.2,2.2,98,0.00,,,0.00,VWS V14.01,2013-01-07 10:02:00,
2013-01-07 05:04:00,19.4,18.9,29.44,NNW,339,2.2,2.2,98,0.00,,,0.00,VWS V14.01,2013-01-07 10:04:00,
2013-01-07 05:06:00,19.2,18.8,29.44,NNW,339,0.0,0.0,98,0.00,,,0.00,VWS V14.01,2013-01-07 10:06:00,
2013-01-07 05:07:00,19.2,18.8,29.41,NNW,339,2.2,2.2,98,0.00,,,0.00,VWS V14.01,2013-01-07 10:07:00,
2013-01-07 05:09:00,19.2,18.8,29.41,NNW,339,2.7,2.7,98,0.00,,,0.00,VWS V14.01,2013-01-07 10:09:00,
2013-01-07 05:11:00,19.2,18.8,29.41,NNW,339,2.2,2.2,98,0.00,,,0.00,VWS V14.01,2013-01-07 10:11:00,
2013-01-07 05:12:00,19.2,18.8,29.41,NNW,339,0.0,0.0,98,0.00,,,0.00,VWS V14.01,2013-01-07 10:12:00,
2013-01-07 05:14:00,18.9,18.4,29.41,NNW,339,2.7,2.7,98,0.00,,,0.00,VWS V14.01,2013-01-07 10:14:00,
2013-01-07 05:15:00,18.9,18.4,29.41,NNW,339,2.7,2.7,98,0.00,,,0.00,VWS V14.01,2013-01-07 10:15:00,
2013-01-07 05:16:00,18.9,18.4,29.41,NNW,339,2.7,3.1,98,0.00,,,0.00,VWS V14.01,2013-01-07 10:16:00,
2013-01-07 05:17:00,18.7,18.2,29.41,NNW,339,3.6,3.6,98,0.00,,,0.00,VWS V14.01,2013-01-07 10:17:00,
2013-01-07 05:20:00,18.7,18.4,29.41,NNW,339,3.1,3.1,99,0.00,,,0.00,VWS V14.01,2013-01-07 10:20:00,
2013-01-07 05:21:00,18.7,18.4,29.41,NNW,339,2.2,2.7,99,0.00,,,0.00,VWS V14.01,2013-01-07 10:21:00,
2013-01-07 05:22:00,18.9,18.6,29.41,NNW,339,2.7,2.7,99,0.00,,,0.00,VWS V14.01,2013-01-07 10:22:00,
2013-01-07 05:25:00,18.7,18.4,29.44,NNW,339,2.7,2.7,99,0.00,,,0.00,VWS V14.01,2013-01-07 10:25:00,
2013-01-07 05:26:00,18.7,18.4,29.44,NNW,339,2.7,2.7,99,0.00,,,0.00,VWS V14.01,2013-01-07 10:26:00,
2013-01-07 05:28:00,18.7,18.4,29.44,NNW,339,2.7,2.7,99,0.00,,,0.00,VWS V14.01,2013-01-07 10:28:00,
2013-01-07 05:30:00,18.7,18.4,29.44,NNW,339,2.2,2.2,99,0.00,,,0.00,VWS V14.01,2013-01-07 10:30:00,
2013-01-07 05:31:00,18.7,18.4,29.44,NNW,339,2.7,2.7,99,0.00,,,0.00,VWS V14.01,2013-01-07 10:31:00,
2013-01-07 05:33:00,18.7,18.4,29.44,NNW,339,2.2,2.2,99,0.00,,,0.00,VWS V14.01,2013-01-07 10:33:00,
2013-01-07 05:35:00,18.7,18.4,29.44,NNW,339,0.0,0.0,99,0.00,,,0.00,VWS V14.01,2013-01-07 10:35:00,
2013-01-07 05:36:00,18.7,18.4,29.44,NNW,339,2.2,2.2,99,0.00,,,0.00,VWS V14.01,2013-01-07 10:36:00,
2013-01-07 05:38:00,18.7,18.4,29.44,NNW,339,0.0,0.0,99,0.00,,,0.00,VWS V14.01,2013-01-07 10:38:00,
2013-01-07 05:40:00,18.7,18.4,29.44,NNW,339,0.0,0.0,99,0.00,,,0.00,VWS V14.01,2013-01-07 10:40:00,
2013-01-07 05:42:00,18.7,18.7,29.44,NNW,339,0.0,0.0,100,0.00,,,0.00,VWS V14.01,2013-01-07 10:42:00,
2013-01-07 05:43:00,18.7,18.7,29.44,NNW,339,0.0,0.0,100,0.00,,,0.00,VWS V14.01,2013-01-07 10:43:00,
2013-01-07 05:45:00,18.9,18.9,29.44,NNW,339,0.0,0.0,100,0.00,,,0.00,VWS V14.01,2013-01-07 10:45:00,
2013-01-07 05:47:00,19.0,19.0,29.44,NNW,339,3.1,3.6,100,0.00,,,0.00,VWS V14.01,2013-01-07 10:47:00,
2013-01-07 05:48:00,19.0,19.0,29.44,NNW,339,2.7,3.1,100,0.00,,,0.00,VWS V14.01,2013-01-07 10:48:00,
2013-01-07 05:50:00,19.0,19.0,29.44,NNW,339,3.1,3.1,100,0.00,,,0.00,VWS V14.01,2013-01-07 10:50:00,
2013-01-07 05:52:00,19.0,19.0,29.44,NNW,339,2.7,2.7,100,0.00,,,0.00,VWS V14.01,2013-01-07 10:52:00,
2013-01-07 05:53:00,19.0,19.0,29.44,NNW,339,0.0,2.7,100,0.00,,,0.00,VWS V14.01,2013-01-07 10:53:00,
2013-01-07 05:55:00,19.0,19.0,29.44,NNW,340,3.1,3.6,100,0.00,,,0.00,VWS V14.01,2013-01-07 10:55:00,
2013-01-07 05:56:00,19.0,19.0,29.44,NNW,340,3.1,3.1,100,0.00,,,0.00,VWS V14.01,2013-01-07 10:56:00,
2013-01-07 05:57:00,19.0,19.0,29.44,NNW,340,2.7,3.1,100,0.00,,,0.00,VWS V14.01,2013-01-07 10:57:00,
2013-01-07 05:58:00,18.9,18.9,29.44,NNW,340,2.7,2.7,100,0.00,,,0.00,VWS V14.01,2013-01-07 10:58:00,
2013-01-07 06:00:00,18.9,18.9,29.44,NNW,341,3.6,3.6,100,0.00,,,0.00,VWS V14.01,2013-01-07 11:00:00,
2013-01-07 06:01:00,18.9,18.9,29.44,NNW,341,2.7,3.6,100,0.00,,,0.00,VWS V14.01,2013-01-07 11:01:00,
2013-01-07 06:02:00,18.9,18.9,29.44,NNW,341,2.7,2.7,100,0.00,,,0.00,VWS V14.01,2013-01-07 11:02:00,
2013-01-07 06:03:00,18.9,18.9,29.44,NNW,341,2.2,2.7,100,0.00,,,0.00,VWS V14.01,2013-01-07 11:03:00,
2013-01-07 06:05:00,18.9,18.9,29.44,NNW,341,2.2,2.7,100,0.00,,,0.00,VWS V14.01,2013-01-07 11:05:00,
2013-01-07 06:06:00,18.9,18.9,29.44,NNW,341,2.7,2.7,100,0.00,,,0.00,VWS V14.01,2013-01-07 11:06:00,
2013-01-07 06:07:00,18.9,18.9,29.44,NNW,341,3.1,3.1,100,0.00,,,0.00,VWS V14.01,2013-01-07 11:07:00,
2013-01-07 06:08:00,18.9,18.9,29.44,NNW,344,2.7,3.6,100,0.00,,,0.00,VWS V14.01,2013-01-07 11:08:00,
2013-01-07 06:10:00,18.9,18.9,29.44,NNW,344,2.7,2.7,100,0.00,,,0.00,VWS V14.01,2013-01-07 11:10:00,
2013-01-07 06:11:00,18.9,18.9,29.44,NNW,344,2.7,2.7,100,0.00,,,0.00,VWS V14.01,2013-01-07 11:11:00,
2013-01-07 06:12:00,18.9,18.9,29.44,North,353,3.1,3.1,100,0.00,,,0.00,VWS V14.01,2013-01-07 11:12:00,
2013-01-07 06:13:00,18.9,18.9,29.44,North,353,2.7,2.7,100,0.00,,,0.00,VWS V14.01,2013-01-07 11:13:00,
2013-01-07 06:15:00,18.9,18.9,29.44,North,350,3.1,3.1,100,0.00,,,0.00,VWS V14.01,2013-01-07 11:15:00,
2013-01-07 06:16:00,18.9,18.9,29.44,North,350,2.2,2.2,100,0.00,,,0.00,VWS V14.01,2013-01-07 11:16:00,
2013-01-07 06:17:00,18.9,18.9,29.44,North,350,2.2,2.2,100,0.00,,,0.00,VWS V14.01,2013-01-07 11:17:00,
2013-01-07 06:18:00,18.9,18.9,29.44,North,350,3.1,3.1,100,0.00,,,0.00,VWS V14.01,2013-01-07 11:18:00,
2013-01-07 06:20:00,18.9,18.9,29.44,North,350,0.0,2.7,100,0.00,,,0.00,VWS V14.01,2013-01-07 11:20:00,
2013-01-07 06:21:00,18.9,18.9,29.44,North,350,2.7,2.7,100,0.00,,,0.00,VWS V14.01,2013-01-07 11:21:00,
2013-01-07 06:22:00,18.9,18.9,29.44,North,350,2.7,2.7,100,0.00,,,0.00,VWS V14.01,2013-01-07 11:22:00,
2013-01-07 06:23:00,18.7,18.7,29.44,North,350,2.7,2.7,100,0.00,,,0.00,VWS V14.01,2013-01-07 11:23:00,
2013-01-07 06:25:00,18.7,18.7,29.44,NNW,341,0.0,2.2,100,0.00,,,0.00,VWS V14.01,2013-01-07 11:25:00,
2013-01-07 06:26:00,18.7,18.7,29.44,NNW,341,0.0,0.0,100,0.00,,,0.00,VWS V14.01,2013-01-07 11:26:00,
2013-01-07 06:27:00,18.7,18.7,29.44,NNW,341,0.0,0.0,100,0.00,,,0.00,VWS V14.01,2013-01-07 11:27:00,
2013-01-07 06:28:00,18.7,18.7,29.44,NNW,341,0.0,0.0,100,0.00,,,0.00,VWS V14.01,2013-01-07 11:28:00,
2013-01-07 06:30:00,18.7,18.7,29.44,NNW,341,0.0,0.0,100,0.00,,,0.00,VWS V14.01,2013-01-07 11:30:00,
2013-01-07 06:32:00,18.5,18.5,29.44,NNW,341,0.0,0.0,100,0.00,,,0.00,VWS V14.01,2013-01-07 11:32:00,
2013-01-07 06:33:00,18.5,18.5,29.44,NNW,341,0.0,0.0,100,0.00,,,0.00,VWS V14.01,2013-01-07 11:33:00,
2013-01-07 06:35:00,18.5,18.5,29.44,NNW,341,0.0,0.0,100,0.00,,,0.00,VWS V14.01,2013-01-07 11:35:00,
2013-01-07 06:37:00,18.5,18.5,29.44,NNW,341,0.0,0.0,100,0.00,,,0.00,VWS V14.01,2013-01-07 11:37:00,
2013-01-07 06:38:00,18.3,18.3,29.44,NNW,341,0.0,0.0,100,0.00,,,0.00,VWS V14.01,2013-01-07 11:38:00,
2013-01-07 06:40:00,18.3,18.3,29.44,NNW,341,0.0,0.0,100,0.00,,,0.00,VWS V14.01,2013-01-07 11:40:00,
2013-01-07 06:42:00,18.3,18.3,29.44,NNW,341,0.0,0.0,100,0.00,,,0.00,VWS V14.01,2013-01-07 11:42:00,
2013-01-07 06:43:00,18.3,18.3,29.44,NNW,341,0.0,0.0,100,0.00,,,0.00,VWS V14.01,2013-01-07 11:43:00,
2013-01-07 06:45:00,18.3,18.3,29.44,NNW,344,4.0,4.0,100,0.00,,,0.00,VWS V14.01,2013-01-07 11:45:00,
2013-01-07 06:47:00,18.3,18.3,29.44,NNW,344,3.6,3.6,100,0.00,,,0.00,VWS V14.01,2013-01-07 11:47:00,
2013-01-07 06:48:00,18.3,18.3,29.44,NNW,344,3.1,3.1,100,0.00,,,0.00,VWS V14.01,2013-01-07 11:48:00,
2013-01-07 06:50:00,18.3,18.3,29.44,NNW,344,2.7,2.7,100,0.00,,,0.00,VWS V14.01,2013-01-07 11:50:00,
2013-01-07 06:52:00,18.3,18.3,29.44,NNW,344,2.2,2.2,100,0.00,,,0.00,VWS V14.01,2013-01-07 11:52:00,
2013-01-07 06:53:00,18.3,18.3,29.44,NNW,344,2.7,2.7,100,0.00,,,0.00,VWS V14.01,2013-01-07 11:53:00,
2013-01-07 06:56:00,18.3,18.3,29.44,NNW,344,2.7,2.7,100,0.00,,,0.00,VWS V14.01,2013-01-07 11:56:00,
2013-01-07 06:57:00,18.3,18.3,29.44,NNW,344,0.0,2.2,100,0.00,,,0.00,VWS V14.01,2013-01-07 11:57:00,
2013-01-07 06:58:00,18.3,18.3,29.44,NNW,344,2.7,2.7,100,0.00,,,0.00,VWS V14.01,2013-01-07 11:58:00,
2013-01-07 07:01:00,18.1,18.1,29.44,NNW,344,3.1,3.1,100,0.00,,,0.00,VWS V14.01,2013-01-07 12:01:00,
2013-01-07 07:02:00,18.1,18.1,29.44,NNW,344,0.0,3.1,100,0.00,,,0.00,VWS V14.01,2013-01-07 12:02:00,
2013-01-07 07:03:00,18.1,18.1,29.44,NNW,344,2.7,2.7,100,0.00,,,0.00,VWS V14.01,2013-01-07 12:03:00,
2013-01-07 07:06:00,18.1,18.1,29.44,NNW,344,0.0,0.0,100,0.00,,,0.00,VWS V14.01,2013-01-07 12:06:00,
2013-01-07 07:07:00,18.0,18.0,29.44,NNW,344,0.0,0.0,100,0.00,,,0.00,VWS V14.01,2013-01-07 12:07:00,
2013-01-07 07:08:00,18.0,18.0,29.44,NNW,344,0.0,0.0,100,0.00,,,0.00,VWS V14.01,2013-01-07 12:08:00,
2013-01-07 07:11:00,18.0,18.0,29.44,NNW,344,0.0,2.2,100,0.00,,,0.00,VWS V14.01,2013-01-07 12:11:00,
2013-01-07 07:13:00,18.1,18.1,29.44,NNW,344,0.0,0.0,100,0.00,,,0.00,VWS V14.01,2013-01-07 12:13:00,
2013-01-07 07:16:00,18.1,18.1,29.44,NNW,344,0.0,0.0,100,0.00,,,0.00,VWS V14.01,2013-01-07 12:16:00,
2013-01-07 07:18:00,18.1,18.1,29.44,NNW,344,2.2,3.1,100,0.00,,,0.00,VWS V14.01,2013-01-07 12:18:00,
2013-01-07 07:21:00,18.0,18.0,29.44,NNW,344,2.7,2.7,100,0.00,,,0.00,VWS V14.01,2013-01-07 12:21:00,
2013-01-07 07:23:00,18.0,18.0,29.44,NNW,344,0.0,2.7,100,0.00,,,0.00,VWS V14.01,2013-01-07 12:23:00,
2013-01-07 07:26:00,18.1,18.1,29.44,NNW,344,0.0,2.2,100,0.00,,,0.00,VWS V14.01,2013-01-07 12:26:00,
2013-01-07 07:28:00,18.0,18.0,29.44,NNW,344,2.2,2.2,100,0.00,,,0.00,VWS V14.01,2013-01-07 12:28:00,
2013-01-07 07:29:00,18.0,18.0,29.44,NNW,344,2.2,2.2,100,0.00,,,0.00,VWS V14.01,2013-01-07 12:29:00,
2013-01-07 07:31:00,18.0,18.0,29.44,NNW,344,2.2,2.2,100,0.00,,,0.00,VWS V14.01,2013-01-07 12:31:00,
2013-01-07 07:33:00,17.8,17.8,29.44,NNW,344,0.0,0.0,100,0.00,,,0.00,VWS V14.01,2013-01-07 12:33:00,
2013-01-07 07:34:00,17.8,17.8,29.44,NNW,344,0.0,0.0,100,0.00,,,0.00,VWS V14.01,2013-01-07 12:34:00,
2013-01-07 07:37:00,17.8,17.8,29.44,NNW,344,0.0,2.7,100,0.00,,,0.00,VWS V14.01,2013-01-07 12:37:00,
2013-01-07 07:38:00,17.8,17.8,29.44,NNW,344,0.0,0.0,100,0.00,,,0.00,VWS V14.01,2013-01-07 12:38:00,
2013-01-07 07:39:00,17.8,17.8,29.44,NNW,344,0.0,0.0,100,0.00,,,0.00,VWS V14.01,2013-01-07 12:39:00,
2013-01-07 07:42:00,17.6,17.6,29.44,NNW,344,0.0,0.0,100,0.00,,,0.00,VWS V14.01,2013-01-07 12:42:00,
2013-01-07 07:43:00,17.6,17.6,29.44,NNW,344,0.0,2.2,100,0.00,,,0.00,VWS V14.01,2013-01-07 12:43:00,
2013-01-07 07:44:00,17.6,17.6,29.44,NNW,344,0.0,2.2,100,0.00,,,0.00,VWS V14.01,2013-01-07 12:44:00,
2013-01-07 07:47:00,17.6,17.6,29.44,NNW,344,0.0,0.0,100,0.00,,,0.00,VWS V14.01,2013-01-07 12:47:00,
2013-01-07 07:48:00,17.6,17.6,29.44,NNW,344,0.0,0.0,100,0.00,,,0.00,VWS V14.01,2013-01-07 12:48:00,
2013-01-07 07:49:00,17.6,17.6,29.44,NNW,344,0.0,0.0,100,0.00,,,0.00,VWS V14.01,2013-01-07 12:49:00,
2013-01-07 07:52:00,17.6,17.6,29.44,NNW,344,0.0,0.0,100,0.00,,,0.00,VWS V14.01,2013-01-07 12:52:00,
2013-01-07 07:53:00,17.6,17.6,29.44,NNW,344,0.0,0.0,100,0.00,,,0.00,VWS V14.01,2013-01-07 12:53:00,
2013-01-07 07:54:00,17.6,17.6,29.44,NNW,344,0.0,0.0,100,0.00,,,0.00,VWS V14.01,2013-01-07 12:54:00,
2013-01-07 07:57:00,17.6,17.6,29.44,NNW,344,0.0,0.0,100,0.00,,,0.00,VWS V14.01,2013-01-07 12:57:00,
2013-01-07 07:59:00,17.4,17.4,29.44,NNW,344,2.7,2.7,100,0.00,,,0.00,VWS V14.01,2013-01-07 12:59:00,
2013-01-07 08:02:00,17.4,17.4,29.44,NNW,344,2.7,2.7,100,0.00,,,0.00,VWS V14.01,2013-01-07 13:02:00,
2013-01-07 08:04:00,17.4,17.4,29.44,WNW,284,2.7,2.7,100,0.00,,,0.00,VWS V14.01,2013-01-07 13:04:00,
2013-01-07 08:07:00,17.4,17.4,29.44,WNW,284,2.2,2.2,100,0.00,,,0.00,VWS V14.01,2013-01-07 13:07:00,
2013-01-07 08:09:00,17.4,17.4,29.44,WNW,284,2.2,2.2,100,0.00,,,0.00,VWS V14.01,2013-01-07 13:09:00,
2013-01-07 08:12:00,17.4,17.4,29.44,WNW,284,0.0,0.0,100,0.00,,,0.00,VWS V14.01,2013-01-07 13:12:00,
2013-01-07 08:14:00,17.4,17.4,29.44,WNW,284,0.0,0.0,100,0.00,,,0.00,VWS V14.01,2013-01-07 13:14:00,
2013-01-07 08:17:00,17.6,17.6,29.44,WNW,284,0.0,0.0,100,0.00,,,0.00,VWS V14.01,2013-01-07 13:17:00,
2013-01-07 08:19:00,17.6,17.6,29.44,WNW,285,4.0,4.0,100,0.00,,,0.00,VWS V14.01,2013-01-07 13:19:00,
2013-01-07 08:22:00,17.6,17.6,29.44,WNW,284,2.2,2.2,100,0.00,,,0.00,VWS V14.01,2013-01-07 13:22:00,
2013-01-07 08:24:00,17.8,17.8,29.44,WNW,284,2.2,2.2,100,0.00,,,0.00,VWS V14.01,2013-01-07 13:24:00,
2013-01-07 08:25:00,17.8,17.8,29.44,WNW,284,0.0,2.2,100,0.00,,,0.00,VWS V14.01,2013-01-07 13:25:00,
2013-01-07 08:27:00,18.0,18.0,29.44,WNW,284,0.0,0.0,100,0.00,,,0.00,VWS V14.01,2013-01-07 13:27:00,
2013-01-07 08:29:00,18.0,18.0,29.44,WNW,284,0.0,0.0,100,0.00,,,0.00,VWS V14.01,2013-01-07 13:29:00,
2013-01-07 08:30:00,18.0,18.0,29.44,WNW,284,0.0,0.0,100,0.00,,,0.00,VWS V14.01,2013-01-07 13:30:00,
2013-01-07 08:32:00,18.0,18.0,29.44,WNW,284,0.0,0.0,100,0.00,,,0.00,VWS V14.01,2013-01-07 13:32:00,
2013-01-07 08:34:00,18.1,18.1,29.44,WNW,284,0.0,0.0,100,0.00,,,0.00,VWS V14.01,2013-01-07 13:34:00,
2013-01-07 08:35:00,18.1,18.1,29.44,WNW,284,0.0,0.0,100,0.00,,,0.00,VWS V14.01,2013-01-07 13:35:00,
2013-01-07 08:37:00,18.1,18.1,29.44,WNW,284,0.0,0.0,100,0.00,,,0.00,VWS V14.01,2013-01-07 13:37:00,
2013-01-07 08:39:00,18.1,18.1,29.44,WNW,284,0.0,0.0,100,0.00,,,0.00,VWS V14.01,2013-01-07 13:39:00,
2013-01-07 08:40:00,18.3,18.3,29.44,WNW,284,0.0,0.0,100,0.00,,,0.00,VWS V14.01,2013-01-07 13:40:00,
2013-01-07 08:42:00,18.3,18.3,29.44,WNW,284,3.1,3.1,100,0.00,,,0.00,VWS V14.01,2013-01-07 13:42:00,
2013-01-07 08:45:00,18.3,18.3,29.44,WNW,284,2.7,2.7,100,0.00,,,0.00,VWS V14.01,2013-01-07 13:45:00,
2013-01-07 08:47:00,18.3,18.3,29.44,WNW,284,0.0,0.0,100,0.00,,,0.00,VWS V14.01,2013-01-07 13:47:00,
2013-01-07 08:50:00,18.5,18.5,29.44,WNW,284,3.1,3.1,100,0.00,,,0.00,VWS V14.01,2013-01-07 13:50:00,
2013-01-07 08:52:00,18.5,18.5,29.44,WNW,290,2.7,2.7,100,0.00,,,0.00,VWS V14.01,2013-01-07 13:52:00,
2013-01-07 08:55:00,18.9,18.9,29.44,WNW,288,0.0,2.7,100,0.00,,,0.00,VWS V14.01,2013-01-07 13:55:00,
2013-01-07 08:57:00,18.9,18.9,29.44,WNW,288,2.7,2.7,100,0.00,,,0.00,VWS V14.01,2013-01-07 13:57:00,
2013-01-07 09:00:00,19.0,19.0,29.44,WNW,288,0.0,0.0,100,0.00,,,0.00,VWS V14.01,2013-01-07 14:00:00,
2013-01-07 09:01:00,19.0,19.0,29.44,WNW,288,0.0,0.0,100,0.00,,,0.00,VWS V14.01,2013-01-07 14:01:00,
2013-01-07 09:02:00,19.2,19.2,29.44,WNW,288,0.0,0.0,100,0.00,,,0.00,VWS V14.01,2013-01-07 14:02:00,
2013-01-07 09:05:00,19.2,19.2,29.44,WNW,288,2.2,2.2,100,0.00,,,0.00,VWS V14.01,2013-01-07 14:05:00,
2013-01-07 09:06:00,19.2,19.2,29.44,WNW,288,2.2,2.2,100,0.00,,,0.00,VWS V14.01,2013-01-07 14:06:00,
2013-01-07 09:07:00,19.2,19.2,29.44,WNW,288,2.2,3.1,100,0.00,,,0.00,VWS V14.01,2013-01-07 14:07:00,
2013-01-07 09:10:00,19.6,19.6,29.44,WNW,288,3.1,3.1,100,0.00,,,0.00,VWS V14.01,2013-01-07 14:10:00,
2013-01-07 09:11:00,19.6,19.6,29.44,WNW,288,3.6,3.6,100,0.00,,,0.00,VWS V14.01,2013-01-07 14:11:00,
2013-01-07 09:12:00,19.6,19.6,29.44,WNW,297,2.2,4.9,100,0.00,,,0.00,VWS V14.01,2013-01-07 14:12:00,
2013-01-07 09:15:00,19.8,19.8,29.44,West,268,2.7,2.7,100,0.00,,,0.00,VWS V14.01,2013-01-07 14:15:00,
2013-01-07 09:16:00,19.8,19.8,29.44,NNW,331,3.1,4.0,100,0.00,,,0.00,VWS V14.01,2013-01-07 14:16:00,
2013-01-07 09:17:00,19.9,19.9,29.44,West,260,3.1,3.1,100,0.00,,,0.00,VWS V14.01,2013-01-07 14:17:00,
2013-01-07 09:20:00,20.1,20.1,29.44,WNW,292,5.4,5.4,100,0.00,,,0.00,VWS V14.01,2013-01-07 14:20:00,
2013-01-07 09:21:00,20.1,20.1,29.44,WNW,292,5.4,5.4,100,0.00,,,0.00,VWS V14.01,2013-01-07 14:21:00,
2013-01-07 09:22:00,20.1,20.1,29.44,WNW,292,3.6,3.6,100,0.00,,,0.00,VWS V14.01,2013-01-07 14:22:00,
2013-01-07 09:25:00,20.3,20.3,29.44,West,274,4.0,4.0,100,0.00,,,0.00,VWS V14.01,2013-01-07 14:25:00,
2013-01-07 09:26:00,20.3,20.3,29.44,NW,325,4.0,4.0,100,0.00,,,0.00,VWS V14.01,2013-01-07 14:26:00,
2013-01-07 09:27:00,20.3,20.3,29.44,NW,310,2.2,2.2,100,0.00,,,0.00,VWS V14.01,2013-01-07 14:27:00,
2013-01-07 09:30:00,20.5,20.5,29.44,WNW,294,3.1,3.1,100,0.00,,,0.00,VWS V14.01,2013-01-07 14:30:00,
2013-01-07 09:31:00,20.5,20.5,29.44,WNW,294,3.1,3.1,100,0.00,,,0.00,VWS V14.01,2013-01-07 14:31:00,
2013-01-07 09:32:00,20.8,20.8,29.44,West,273,3.6,3.6,100,0.00,,,0.00,VWS V14.01,2013-01-07 14:32:00,
2013-01-07 09:35:00,21.0,21.0,29.44,NW,305,2.2,3.6,100,0.00,,,0.00,VWS V14.01,2013-01-07 14:35:00,
2013-01-07 09:36:00,21.0,21.0,29.44,NW,305,4.0,4.0,100,0.00,,,0.00,VWS V14.01,2013-01-07 14:36:00,
2013-01-07 09:38:00,21.0,21.0,29.44,NW,305,4.0,4.0,100,0.00,,,0.00,VWS V14.01,2013-01-07 14:38:00,
2013-01-07 09:40:00,21.2,21.2,29.44,North,0,4.0,4.0,100,0.00,,,0.00,VWS V14.01,2013-01-07 14:40:00,
2013-01-07 09:41:00,21.4,21.4,29.44,North,0,4.0,4.0,100,0.00,,,0.00,VWS V14.01,2013-01-07 14:41:00,
2013-01-07 09:43:00,21.4,21.4,29.44,West,279,2.2,3.1,100,0.00,,,0.00,VWS V14.01,2013-01-07 14:43:00,
2013-01-07 09:45:00,21.6,21.6,29.44,NNW,336,2.7,2.7,100,0.00,,,0.00,VWS V14.01,2013-01-07 14:45:00,
2013-01-07 09:46:00,21.7,21.7,29.44,West,271,6.3,6.3,100,0.00,,,0.00,VWS V14.01,2013-01-07 14:46:00,
2013-01-07 09:48:00,21.7,21.7,29.44,West,271,6.3,6.3,100,0.00,,,0.00,VWS V14.01,2013-01-07 14:48:00,
2013-01-07 09:50:00,21.9,21.9,29.44,WNW,288,2.7,2.7,100,0.00,,,0.00,VWS V14.01,2013-01-07 14:50:00,
2013-01-07 09:51:00,21.9,21.9,29.44,WNW,288,2.7,2.7,100,0.00,,,0.00,VWS V14.01,2013-01-07 14:51:00,
2013-01-07 09:53:00,22.1,22.1,29.44,WNW,291,2.7,2.7,100,0.00,,,0.00,VWS V14.01,2013-01-07 14:53:00,
2013-01-07 09:55:00,22.3,22.3,29.44,NW,326,3.6,3.6,100,0.00,,,0.00,VWS V14.01,2013-01-07 14:55:00,
2013-01-07 09:56:00,22.5,22.5,29.44,NW,324,3.1,3.6,100,0.00,,,0.00,VWS V14.01,2013-01-07 14:56:00,
2013-01-07 09:58:00,22.5,22.5,29.44,NW,319,2.7,3.1,100,0.00,,,0.00,VWS V14.01,2013-01-07 14:58:00,
2013-01-07 10:01:00,22.5,22.5,29.44,NW,317,2.7,2.7,100,0.00,,,0.00,VWS V14.01,2013-01-07 15:01:00,
2013-01-07 10:03:00,22.6,22.6,29.44,NW,322,0.0,3.6,100,0.00,,,0.00,VWS V14.01,2013-01-07 15:03:00,
2013-01-07 10:06:00,22.8,22.8,29.44,WNW,297,3.6,3.6,100,0.00,,,0.00,VWS V14.01,2013-01-07 15:06:00,
2013-01-07 10:07:00,22.8,22.8,29.44,NNW,333,2.7,3.6,100,0.00,,,0.00,VWS V14.01,2013-01-07 15:07:00,
2013-01-07 10:08:00,23.0,23.0,29.44,NW,314,3.1,3.1,100,0.00,,,0.00,VWS V14.01,2013-01-07 15:08:00,
2013-01-07 10:11:00,23.0,23.0,29.44,WNW,295,2.7,3.6,100,0.00,,,0.00,VWS V14.01,2013-01-07 15:11:00,
2013-01-07 10:12:00,23.0,23.0,29.44,WNW,295,2.2,2.7,100,0.00,,,0.00,VWS V14.01,2013-01-07 15:12:00,
2013-01-07 10:13:00,23.4,23.4,29.44,NW,323,4.5,4.5,100,0.00,,,0.00,VWS V14.01,2013-01-07 15:13:00,
2013-01-07 10:16:00,23.5,23.5,29.44,NW,326,4.9,6.3,100,0.00,,,0.00,VWS V14.01,2013-01-07 15:16:00,
2013-01-07 10:17:00,23.5,23.5,29.44,NW,326,3.6,3.6,100,0.00,,,0.00,VWS V14.01,2013-01-07 15:17:00,
2013-01-07 10:18:00,23.7,23.7,29.44,NNW,341,4.0,4.0,100,0.00,,,0.00,VWS V14.01,2013-01-07 15:18:00,
2013-01-07 10:21:00,23.9,23.9,29.44,NNW,344,4.9,4.9,100,0.00,,,0.00,VWS V14.01,2013-01-07 15:21:00,
2013-01-07 10:22:00,24.1,24.1,29.44,NNW,329,4.9,4.9,100,0.00,,,0.00,VWS V14.01,2013-01-07 15:22:00,
2013-01-07 10:23:00,24.1,24.1,29.44,NNW,329,4.9,4.9,100,0.00,,,0.00,VWS V14.01,2013-01-07 15:23:00,
2013-01-07 10:26:00,24.4,24.4,29.44,NW,318,6.3,6.3,100,0.00,,,0.00,VWS V14.01,2013-01-07 15:26:00,
2013-01-07 10:27:00,24.4,24.4,29.44,NW,317,5.8,5.8,100,0.00,,,0.00,VWS V14.01,2013-01-07 15:27:00,
2013-01-07 10:28:00,24.4,24.4,29.44,NNW,336,4.9,5.8,100,0.00,,,0.00,VWS V14.01,2013-01-07 15:28:00,
2013-01-07 10:31:00,24.6,24.6,29.44,West,269,6.3,6.3,100,0.00,,,0.00,VWS V14.01,2013-01-07 15:31:00,
2013-01-07 10:32:00,24.6,24.6,29.44,West,269,6.3,6.3,100,0.00,,,0.00,VWS V14.01,2013-01-07 15:32:00,
2013-01-07 10:33:00,24.8,24.8,29.44,NW,322,4.9,6.3,100,0.00,,,0.00,VWS V14.01,2013-01-07 15:33:00,
2013-01-07 10:36:00,25.2,25.2,29.44,NW,321,4.0,4.0,100,0.00,,,0.00,VWS V14.01,2013-01-07 15:36:00,
2013-01-07 10:37:00,25.2,25.2,29.44,NW,305,4.9,4.9,100,0.00,,,0.00,VWS V14.01,2013-01-07 15:37:00,
2013-01-07 10:38:00,25.3,25.3,29.44,NNW,327,5.4,5.4,100,0.00,,,0.00,VWS V14.01,2013-01-07 15:38:00,
2013-01-07 10:41:00,25.5,25.5,29.44,WNW,300,6.3,6.3,100,0.00,,,0.00,VWS V14.01,2013-01-07 15:41:00,
2013-01-07 10:42:00,25.5,25.5,29.44,WNW,300,2.7,6.3,100,0.00,,,0.00,VWS V14.01,2013-01-07 15:42:00,
2013-01-07 10:43:00,25.7,25.7,29.44,WNW,297,4.0,4.0,100,0.00,,,0.00,VWS V14.01,2013-01-07 15:43:00,
2013-01-07 10:46:00,25.9,25.9,29.44,WNW,298,2.7,4.0,100,0.00,,,0.00,VWS V14.01,2013-01-07 15:46:00,
2013-01-07 10:47:00,26.1,26.1,29.44,NNW,344,4.5,4.5,100,0.00,,,0.00,VWS V14.01,2013-01-07 15:47:00,
2013-01-07 10:49:00,26.2,26.2,29.44,NW,306,4.0,5.4,100,0.00,,,0.00,VWS V14.01,2013-01-07 15:49:00,
2013-01-07 10:51:00,26.4,26.4,29.47,WNW,291,3.1,4.0,100,0.00,,,0.00,VWS V14.01,2013-01-07 15:51:00,
2013-01-07 10:52:00,26.4,26.4,29.47,WNW,284,2.7,4.0,100,0.00,,,0.00,VWS V14.01,2013-01-07 15:52:00,
2013-01-07 10:54:00,26.8,26.8,29.47,WNW,302,5.8,5.8,100,0.00,,,0.00,VWS V14.01,2013-01-07 15:54:00,
2013-01-07 10:56:00,27.0,27.0,29.47,North,350,5.4,5.4,100,0.00,,,0.00,VWS V14.01,2013-01-07 15:56:00,
2013-01-07 10:57:00,27.0,27.0,29.47,NNW,337,3.1,5.4,100,0.00,,,0.00,VWS V14.01,2013-01-07 15:57:00,
2013-01-07 10:58:00,27.3,27.3,29.47,NW,318,2.7,3.1,100,0.00,,,0.00,VWS V14.01,2013-01-07 15:58:00,
2013-01-07 10:59:00,27.3,27.3,29.47,NW,323,5.4,5.4,100,0.00,,,0.00,VWS V14.01,2013-01-07 15:59:00,
2013-01-07 11:01:00,27.7,27.7,29.47,NW,321,4.9,4.9,100,0.00,,,0.00,VWS V14.01,2013-01-07 16:01:00,
2013-01-07 11:02:00,27.7,27.7,29.47,WNW,295,4.9,6.3,100,0.00,,,0.00,VWS V14.01,2013-01-07 16:02:00,
2013-01-07 11:03:00,27.7,27.7,29.47,WNW,295,4.9,6.3,100,0.00,,,0.00,VWS V14.01,2013-01-07 16:03:00,
2013-01-07 11:04:00,27.7,27.7,29.47,WNW,295,4.9,4.9,100,0.00,,,0.00,VWS V14.01,2013-01-07 16:04:00,
2013-01-07 11:06:00,28.0,28.0,29.47,NNW,333,3.1,6.3,100,0.00,,,0.00,VWS V14.01,2013-01-07 16:06:00,
2013-01-07 11:07:00,28.0,28.0,29.47,WNW,288,5.8,5.8,100,0.00,,,0.00,VWS V14.01,2013-01-07 16:07:00,
2013-01-07 11:08:00,28.2,28.2,29.47,WNW,288,2.7,5.8,100,0.00,,,0.00,VWS V14.01,2013-01-07 16:08:00,
2013-01-07 11:09:00,28.2,28.2,29.47,WNW,288,3.1,3.1,100,0.00,,,0.00,VWS V14.01,2013-01-07 16:09:00,
2013-01-07 11:11:00,28.6,28.3,29.47,WNW,286,5.8,5.8,99,0.00,,,0.00,VWS V14.01,2013-01-07 16:11:00,
2013-01-07 11:12:00,28.8,28.5,29.47,WNW,284,3.6,3.6,99,0.00,,,0.00,VWS V14.01,2013-01-07 16:12:00,
2013-01-07 11:13:00,28.8,28.3,29.47,NNW,333,4.0,4.0,98,0.00,,,0.00,VWS V14.01,2013-01-07 16:13:00,
2013-01-07 11:14:00,28.9,28.5,29.47,NNW,345,4.0,4.0,98,0.00,,,0.00,VWS V14.01,2013-01-07 16:14:00,
2013-01-07 11:16:00,29.3,28.6,29.47,West,277,4.0,4.0,97,0.00,,,0.00,VWS V14.01,2013-01-07 16:16:00,
2013-01-07 11:17:00,29.3,28.6,29.47,NNW,345,5.8,5.8,97,0.00,,,0.00,VWS V14.01,2013-01-07 16:17:00,
2013-01-07 11:18:00,29.3,28.6,29.47,North,0,3.6,5.8,97,0.00,,,0.00,VWS V14.01,2013-01-07 16:18:00,
2013-01-07 11:19:00,29.7,28.7,29.47,North,353,4.0,4.0,96,0.00,,,0.00,VWS V14.01,2013-01-07 16:19:00,
2013-01-07 11:21:00,30.0,28.5,29.44,North,353,0.0,0.0,94,0.00,,,0.00,VWS V14.01,2013-01-07 16:21:00,
2013-01-07 11:23:00,30.0,28.5,29.44,North,353,2.7,2.7,94,0.00,,,0.00,VWS V14.01,2013-01-07 16:23:00,
2013-01-07 11:24:00,30.4,28.6,29.44,NNW,334,2.7,2.7,93,0.00,,,0.00,VWS V14.01,2013-01-07 16:24:00,
2013-01-07 11:27:00,30.6,28.8,29.44,West,275,5.4,5.4,93,0.00,,,0.00,VWS V14.01,2013-01-07 16:27:00,
2013-01-07 11:28:00,30.9,28.9,29.44,NNW,341,3.1,5.4,92,0.00,,,0.00,VWS V14.01,2013-01-07 16:28:00,
2013-01-07 11:29:00,30.9,28.9,29.44,NNW,341,2.7,2.7,92,0.00,,,0.00,VWS V14.01,2013-01-07 16:29:00,
2013-01-07 11:32:00,31.5,29.1,29.44,NNW,337,3.1,4.9,91,0.00,,,0.00,VWS V14.01,2013-01-07 16:32:00,
2013-01-07 11:33:00,31.6,29.0,29.44,NNW,337,3.1,3.1,90,0.00,,,0.00,VWS V14.01,2013-01-07 16:33:00,
2013-01-07 11:34:00,32.0,29.4,29.44,West,263,3.6,5.4,90,0.00,,,0.00,VWS V14.01,2013-01-07 16:34:00,
2013-01-07 11:37:00,32.2,28.8,29.44,West,263,3.6,3.6,87,0.00,,,0.00,VWS V14.01,2013-01-07 16:37:00,
2013-01-07 11:38:00,32.2,28.8,29.44,NW,321,5.4,5.4,87,0.00,,,0.00,VWS V14.01,2013-01-07 16:38:00,
2013-01-07 11:40:00,32.2,28.8,29.44,WSW,246,5.4,5.4,87,0.00,,,0.00,VWS V14.01,2013-01-07 16:40:00,
2013-01-07 11:42:00,32.5,27.7,29.44,North,353,3.1,5.4,82,0.00,,,0.00,VWS V14.01,2013-01-07 16:42:00,
2013-01-07 11:43:00,32.5,27.7,29.44,WNW,299,6.3,6.3,82,0.00,,,0.00,VWS V14.01,2013-01-07 16:43:00,
2013-01-07 11:45:00,32.7,27.5,29.44,NNW,344,5.8,5.8,81,0.00,,,0.00,VWS V14.01,2013-01-07 16:45:00,
2013-01-07 11:47:00,32.9,27.7,29.44,NNE,28,6.3,6.3,81,0.00,,,0.00,VWS V14.01,2013-01-07 16:47:00,
2013-01-07 11:48:00,33.1,27.6,29.44,NW,326,4.5,6.3,80,0.00,,,0.00,VWS V14.01,2013-01-07 16:48:00,
2013-01-07 11:50:00,33.1,27.6,29.44,NW,325,4.0,4.0,80,0.00,,,0.00,VWS V14.01,2013-01-07 16:50:00,
2013-01-07 11:52:00,33.1,27.6,29.44,NW,322,10.1,10.1,80,0.00,,,0.00,VWS V14.01,2013-01-07 16:52:00,
2013-01-07 11:53:00,33.3,27.5,29.44,NNW,329,7.6,7.6,79,0.00,,,0.00,VWS V14.01,2013-01-07 16:53:00,
2013-01-07 11:55:00,33.3,27.5,29.44,NNW,335,4.9,6.7,79,0.00,,,0.00,VWS V14.01,2013-01-07 16:55:00,
2013-01-07 11:57:00,33.6,27.8,29.44,North,353,5.4,5.4,79,0.00,,,0.00,VWS V14.01,2013-01-07 16:57:00,
2013-01-07 11:58:00,33.8,27.7,29.44,North,353,4.0,4.0,78,0.00,,,0.00,VWS V14.01,2013-01-07 16:58:00,
2013-01-07 11:59:00,33.8,27.7,29.44,North,353,4.0,4.0,78,0.00,,,0.00,VWS V14.01,2013-01-07 16:59:00,
2013-01-07 12:00:00,34.0,27.9,29.44,NW,310,3.6,4.5,78,0.00,,,0.00,VWS V14.01,2013-01-07 17:00:00,
2013-01-07 12:02:00,34.3,28.2,29.41,North,357,3.1,3.1,78,0.00,,,0.00,VWS V14.01,2013-01-07 17:02:00,
2013-01-07 12:03:00,34.5,28.4,29.41,WNW,301,4.9,5.4,78,0.00,,,0.00,VWS V14.01,2013-01-07 17:03:00,
2013-01-07 12:04:00,34.5,28.4,29.41,NW,325,3.6,4.9,78,0.00,,,0.00,VWS V14.01,2013-01-07 17:04:00,
2013-01-07 12:05:00,34.5,28.4,29.41,WNW,297,6.3,6.3,78,0.00,,,0.00,VWS V14.01,2013-01-07 17:05:00,
2013-01-07 12:07:00,34.9,28.7,29.41,NNW,340,6.3,6.3,78,0.00,,,0.00,VWS V14.01,2013-01-07 17:07:00,
2013-01-07 12:08:00,34.9,28.7,29.41,NNW,330,3.1,6.3,78,0.00,,,0.00,VWS V14.01,2013-01-07 17:08:00,
2013-01-07 12:09:00,34.9,28.7,29.41,NNW,340,5.8,5.8,78,0.00,,,0.00,VWS V14.01,2013-01-07 17:09:00,
2013-01-07 12:10:00,34.9,28.7,29.41,NNW,338,5.4,5.8,78,0.00,,,0.00,VWS V14.01,2013-01-07 17:10:00,
2013-01-07 12:12:00,34.9,28.4,29.41,West,273,4.9,4.9,77,0.00,,,0.00,VWS V14.01,2013-01-07 17:12:00,
2013-01-07 12:13:00,34.9,28.4,29.41,NNW,341,3.6,5.8,77,0.00,,,0.00,VWS V14.01,2013-01-07 17:13:00,
2013-01-07 12:14:00,35.1,28.6,29.41,NW,313,5.4,5.8,77,0.00,,,0.00,VWS V14.01,2013-01-07 17:14:00,
2013-01-07 12:15:00,35.1,28.6,29.41,WNW,301,3.1,5.8,77,0.00,,,0.00,VWS V14.01,2013-01-07 17:15:00,
2013-01-07 12:18:00,35.1,28.6,29.41,NNW,332,6.3,6.3,77,0.00,,,0.00,VWS V14.01,2013-01-07 17:18:00,
2013-01-07 12:19:00,35.1,28.6,29.41,NNW,340,6.3,6.3,77,0.00,,,0.00,VWS V14.01,2013-01-07 17:19:00,
2013-01-07 12:20:00,35.2,28.8,29.41,NNW,339,4.0,4.0,77,0.00,,,0.00,VWS V14.01,2013-01-07 17:20:00,
2013-01-07 12:23:00,35.4,28.9,29.41,NNW,335,8.3,8.3,77,0.00,,,0.00,VWS V14.01,2013-01-07 17:23:00,
2013-01-07 12:24:00,35.4,28.9,29.41,North,0,6.7,8.3,77,0.00,,,0.00,VWS V14.01,2013-01-07 17:24:00,
2013-01-07 12:25:00,35.4,28.9,29.41,WNW,301,5.8,7.6,77,0.00,,,0.00,VWS V14.01,2013-01-07 17:25:00,
2013-01-07 12:28:00,35.4,28.9,29.41,North,5,3.1,3.1,77,0.00,,,0.00,VWS V14.01,2013-01-07 17:28:00,
2013-01-07 12:29:00,35.2,28.8,29.41,NW,324,7.6,7.6,77,0.00,,,0.00,VWS V14.01,2013-01-07 17:29:00,
2013-01-07 12:30:00,35.2,28.8,29.41,WNW,292,3.6,7.6,77,0.00,,,0.00,VWS V14.01,2013-01-07 17:30:00,
2013-01-07 12:33:00,35.4,28.9,29.41,NNW,344,10.1,10.1,77,0.00,,,0.00,VWS V14.01,2013-01-07 17:33:00,
2013-01-07 12:34:00,35.6,28.8,29.41,NNW,334,4.5,5.8,76,0.00,,,0.00,VWS V14.01,2013-01-07 17:34:00,
2013-01-07 12:35:00,35.6,28.8,29.41,NNW,345,11.0,11.0,76,0.00,,,0.00,VWS V14.01,2013-01-07 17:35:00,
2013-01-07 12:38:00,35.8,29.0,29.38,NW,308,5.8,5.8,76,0.00,,,0.00,VWS V14.01,2013-01-07 17:38:00,
2013-01-07 12:39:00,35.8,29.0,29.38,NNW,344,3.6,5.8,76,0.00,,,0.00,VWS V14.01,2013-01-07 17:39:00,
2013-01-07 12:40:00,36.0,29.1,29.38,NNW,344,3.6,3.6,76,0.00,,,0.00,VWS V14.01,2013-01-07 17:40:00,
2013-01-07 12:41:00,36.0,29.1,29.38,NNW,339,6.3,6.3,76,0.00,,,0.00,VWS V14.01,2013-01-07 17:41:00,
2013-01-07 12:43:00,36.0,29.1,29.38,NNW,344,4.9,6.3,76,0.00,,,0.00,VWS V14.01,2013-01-07 17:43:00,
2013-01-07 12:44:00,36.0,29.1,29.38,NW,319,5.8,5.8,76,0.00,,,0.00,VWS V14.01,2013-01-07 17:44:00,
2013-01-07 12:45:00,36.0,29.1,29.38,NW,319,5.8,5.8,76,0.00,,,0.00,VWS V14.01,2013-01-07 17:45:00,
2013-01-07 12:46:00,36.1,29.3,29.38,NNW,334,3.1,3.1,76,0.00,,,0.00,VWS V14.01,2013-01-07 17:46:00,
2013-01-07 12:49:00,36.1,29.3,29.38,North,353,6.3,6.3,76,0.00,,,0.00,VWS V14.01,2013-01-07 17:49:00,
2013-01-07 12:50:00,36.3,29.5,29.38,North,353,5.4,5.4,76,0.00,,,0.00,VWS V14.01,2013-01-07 17:50:00,
2013-01-07 12:51:00,36.3,29.5,29.38,NW,322,5.8,8.3,76,0.00,,,0.00,VWS V14.01,2013-01-07 17:51:00,
2013-01-07 12:54:00,36.3,29.5,29.38,NW,307,7.6,7.6,76,0.00,,,0.00,VWS V14.01,2013-01-07 17:54:00,
2013-01-07 12:55:00,36.5,29.7,29.38,NW,322,2.7,7.6,76,0.00,,,0.00,VWS V14.01,2013-01-07 17:55:00,
2013-01-07 12:56:00,36.5,29.7,29.38,NW,317,5.4,5.4,76,0.00,,,0.00,VWS V14.01,2013-01-07 17:56:00,
2013-01-07 12:59:00,36.7,29.8,29.38,North,353,7.6,7.6,76,0.00,,,0.00,VWS V14.01,2013-01-07 17:59:00,
2013-01-07 13:00:00,36.7,29.8,29.38,NNW,331,7.6,7.6,76,0.00,,,0.00,VWS V14.01,2013-01-07 18:00:00,
2013-01-07 13:01:00,36.7,29.8,29.38,NW,318,8.3,8.3,76,0.00,,,0.00,VWS V14.01,2013-01-07 18:01:00,
2013-01-07 13:04:00,36.9,30.0,29.38,NNW,331,5.4,6.3,76,0.00,,,0.00,VWS V14.01,2013-01-07 18:04:00,
2013-01-07 13:05:00,36.9,30.0,29.38,NW,320,4.9,5.4,76,0.00,,,0.00,VWS V14.01,2013-01-07 18:05:00,
2013-01-07 13:06:00,36.9,30.0,29.38,NNW,339,5.4,5.4,76,0.00,,,0.00,VWS V14.01,2013-01-07 18:06:00,
2013-01-07 13:09:00,36.9,30.0,29.38,NNW,333,3.6,8.3,76,0.00,,,0.00,VWS V14.01,2013-01-07 18:09:00,
2013-01-07 13:10:00,36.9,30.0,29.38,NNW,328,4.0,4.9,76,0.00,,,0.00,VWS V14.01,2013-01-07 18:10:00,
2013-01-07 13:11:00,37.0,30.2,29.38,NNW,331,3.6,5.4,76,0.00,,,0.00,VWS V14.01,2013-01-07 18:11:00,
2013-01-07 13:14:00,37.2,30.4,29.38,NW,310,6.3,6.3,76,0.00,,,0.00,VWS V14.01,2013-01-07 18:14:00,
2013-01-07 13:15:00,37.4,30.5,29.38,NNW,328,3.6,8.1,76,0.00,,,0.00,VWS V14.01,2013-01-07 18:15:00,
2013-01-07 13:16:00,37.4,30.5,29.38,NNW,338,10.1,10.1,76,0.00,,,0.00,VWS V14.01,2013-01-07 18:16:00,
2013-01-07 13:19:00,37.4,30.5,29.38,NW,307,5.4,6.3,76,0.00,,,0.00,VWS V14.01,2013-01-07 18:19:00,
2013-01-07 13:20:00,37.6,30.7,29.38,NW,307,8.1,8.1,76,0.00,,,0.00,VWS V14.01,2013-01-07 18:20:00,
2013-01-07 13:21:00,37.6,30.7,29.38,North,353,5.4,8.1,76,0.00,,,0.00,VWS V14.01,2013-01-07 18:21:00,
2013-01-07 13:24:00,37.6,30.7,29.38,North,357,5.4,5.4,76,0.00,,,0.00,VWS V14.01,2013-01-07 18:24:00,
2013-01-07 13:25:00,37.6,30.7,29.38,NW,325,4.9,4.9,76,0.00,,,0.00,VWS V14.01,2013-01-07 18:25:00,
2013-01-07 13:26:00,37.6,30.7,29.38,NW,325,4.9,4.9,76,0.00,,,0.00,VWS V14.01,2013-01-07 18:26:00,
2013-01-07 13:29:00,37.8,30.9,29.38,NNW,334,5.8,5.8,76,0.00,,,0.00,VWS V14.01,2013-01-07 18:29:00,
2013-01-07 13:30:00,37.8,30.9,29.38,NW,313,4.0,6.3,76,0.00,,,0.00,VWS V14.01,2013-01-07 18:30:00,
2013-01-07 13:31:00,37.8,30.9,29.38,North,349,3.6,6.3,76,0.00,,,0.00,VWS V14.01,2013-01-07 18:31:00,
2013-01-07 13:34:00,37.9,31.1,29.38,NW,319,3.6,7.6,76,0.00,,,0.00,VWS V14.01,2013-01-07 18:34:00,
2013-01-07 13:35:00,37.9,31.1,29.38,SW,235,5.4,5.4,76,0.00,,,0.00,VWS V14.01,2013-01-07 18:35:00,
2013-01-07 13:36:00,37.9,31.1,29.35,SW,235,5.4,5.4,76,0.00,,,0.00,VWS V14.01,2013-01-07 18:36:00,
2013-01-07 13:37:00,37.9,31.1,29.35,SW,235,5.4,5.4,76,0.00,,,0.00,VWS V14.01,2013-01-07 18:37:00,
2013-01-07 13:39:00,38.1,31.2,29.35,NNW,336,5.4,5.4,76,0.00,,,0.00,VWS V14.01,2013-01-07 18:39:00,
2013-01-07 13:41:00,38.1,31.2,29.35,North,0,5.8,5.8,76,0.00,,,0.00,VWS V14.01,2013-01-07 18:41:00,
2013-01-07 13:42:00,38.1,31.2,29.35,NW,322,7.2,7.2,76,0.00,,,0.00,VWS V14.01,2013-01-07 18:42:00,
2013-01-07 13:45:00,38.1,31.2,29.35,NNW,345,7.2,7.2,76,0.00,,,0.00,VWS V14.01,2013-01-07 18:45:00,
2013-01-07 13:46:00,38.1,31.2,29.35,NW,320,11.9,11.9,76,0.00,,,0.00,VWS V14.01,2013-01-07 18:46:00,
2013-01-07 13:47:00,38.1,31.2,29.35,NW,309,4.9,8.1,76,0.00,,,0.00,VWS V14.01,2013-01-07 18:47:00,
2013-01-07 13:50:00,37.9,31.1,29.35,NNW,334,4.9,7.6,76,0.00,,,0.00,VWS V14.01,2013-01-07 18:50:00,
2013-01-07 13:51:00,37.9,31.1,29.35,WNW,293,6.3,6.3,76,0.00,,,0.00,VWS V14.01,2013-01-07 18:51:00,
2013-01-07 13:52:00,37.9,31.1,29.35,WNW,293,6.3,6.3,76,0.00,,,0.00,VWS V14.01,2013-01-07 18:52:00,
2013-01-07 13:55:00,37.9,31.1,29.35,NNW,340,5.8,5.8,76,0.00,,,0.00,VWS V14.01,2013-01-07 18:55:00,
2013-01-07 13:56:00,37.9,31.1,29.35,North,349,5.8,5.8,76,0.00,,,0.00,VWS V14.01,2013-01-07 18:56:00,
2013-01-07 13:57:00,37.9,31.1,29.35,NNW,334,5.8,5.8,76,0.00,,,0.00,VWS V14.01,2013-01-07 18:57:00,
2013-01-07 14:00:00,37.9,31.1,29.35,North,10,6.3,6.3,76,0.00,,,0.00,VWS V14.01,2013-01-07 19:00:00,
2013-01-07 14:01:00,37.9,31.1,29.35,NNW,339,5.8,5.8,76,0.00,,,0.00,VWS V14.01,2013-01-07 19:01:00,
2013-01-07 14:02:00,37.9,31.1,29.35,NNW,339,5.8,5.8,76,0.00,,,0.00,VWS V14.01,2013-01-07 19:02:00,
2013-01-07 14:05:00,37.8,30.9,29.35,West,281,7.6,7.6,76,0.00,,,0.00,VWS V14.01,2013-01-07 19:05:00,
2013-01-07 14:06:00,37.6,30.7,29.35,NNW,342,8.3,8.3,76,0.00,,,0.00,VWS V14.01,2013-01-07 19:06:00,
2013-01-07 14:07:00,37.6,30.7,29.35,NNW,342,8.3,8.3,76,0.00,,,0.00,VWS V14.01,2013-01-07 19:07:00,
2013-01-07 14:10:00,37.6,30.7,29.35,West,278,5.8,5.8,76,0.00,,,0.00,VWS V14.01,2013-01-07 19:10:00,
2013-01-07 14:11:00,37.6,30.7,29.35,North,357,7.6,7.6,76,0.00,,,0.00,VWS V14.01,2013-01-07 19:11:00,
2013-01-07 14:12:00,37.6,30.7,29.35,North,357,7.6,7.6,76,0.00,,,0.00,VWS V14.01,2013-01-07 19:12:00,
2013-01-07 14:15:00,37.6,30.7,29.35,NW,317,4.0,8.1,76,0.00,,,0.00,VWS V14.01,2013-01-07 19:15:00,
2013-01-07 14:16:00,37.6,30.7,29.35,NNW,338,7.6,7.6,76,0.00,,,0.00,VWS V14.01,2013-01-07 19:16:00,
2013-01-07 14:17:00,37.4,30.5,29.35,NNW,343,8.3,8.3,76,0.00,,,0.00,VWS V14.01,2013-01-07 19:17:00,
2013-01-07 14:20:00,37.2,30.4,29.35,NNW,342,3.6,6.3,76,0.00,,,0.00,VWS V14.01,2013-01-07 19:20:00,
2013-01-07 14:21:00,37.0,30.2,29.35,NNW,342,6.3,6.3,76,0.00,,,0.00,VWS V14.01,2013-01-07 19:21:00,
2013-01-07 14:22:00,37.0,30.2,29.35,NNW,342,6.3,6.3,76,0.00,,,0.00,VWS V14.01,2013-01-07 19:22:00,
2013-01-07 14:25:00,37.0,30.2,29.35,NNW,343,5.8,5.8,76,0.00,,,0.00,VWS V14.01,2013-01-07 19:25:00,
2013-01-07 14:26:00,37.0,30.2,29.35,North,357,8.3,8.3,76,0.00,,,0.00,VWS V14.01,2013-01-07 19:26:00,
2013-01-07 14:27:00,36.9,30.0,29.35,WNW,297,8.1,8.3,76,0.00,,,0.00,VWS V14.01,2013-01-07 19:27:00,
2013-01-07 14:30:00,36.7,29.8,29.35,West,279,3.6,3.6,76,0.00,,,0.00,VWS V14.01,2013-01-07 19:30:00,
2013-01-07 14:31:00,36.7,29.8,29.35,NW,313,5.4,5.8,76,0.00,,,0.00,VWS V14.01,2013-01-07 19:31:00,
2013-01-07 14:32:00,36.7,29.8,29.35,NW,317,5.8,5.8,76,0.00,,,0.00,VWS V14.01,2013-01-07 19:32:00,
2013-01-07 14:33:00,36.7,29.8,29.35,NW,317,5.8,5.8,76,0.00,,,0.00,VWS V14.01,2013-01-07 19:33:00,
2013-01-07 14:35:00,36.7,29.8,29.35,NW,314,5.8,5.8,76,0.00,,,0.00,VWS V14.01,2013-01-07 19:35:00,
2013-01-07 14:36:00,36.7,29.8,29.35,NNW,342,8.3,8.3,76,0.00,,,0.00,VWS V14.01,2013-01-07 19:36:00,
2013-01-07 14:37:00,36.7,29.8,29.35,North,350,8.1,8.3,76,0.00,,,0.00,VWS V14.01,2013-01-07 19:37:00,
2013-01-07 14:38:00,36.7,29.8,29.35,North,4,7.2,8.1,76,0.00,,,0.00,VWS V14.01,2013-01-07 19:38:00,
2013-01-07 14:40:00,36.5,29.7,29.35,NW,319,10.1,10.1,76,0.00,,,0.00,VWS V14.01,2013-01-07 19:40:00,
2013-01-07 14:41:00,36.5,29.7,29.35,NW,313,8.7,8.7,76,0.00,,,0.00,VWS V14.01,2013-01-07 19:41:00,
2013-01-07 14:42:00,36.3,29.5,29.35,NW,313,8.7,8.7,76,0.00,,,0.00,VWS V14.01,2013-01-07 19:42:00,
2013-01-07 14:43:00,36.3,29.5,29.35,WNW,286,5.4,8.7,76,0.00,,,0.00,VWS V14.01,2013-01-07 19:43:00,
2013-01-07 14:46:00,36.3,29.5,29.32,NW,305,5.8,8.1,76,0.00,,,0.00,VWS V14.01,2013-01-07 19:46:00,
2013-01-07 14:47:00,36.3,29.5,29.32,NNW,345,5.4,7.2,76,0.00,,,0.00,VWS V14.01,2013-01-07 19:47:00,
2013-01-07 14:48:00,36.1,29.3,29.32,West,260,5.8,5.8,76,0.00,,,0.00,VWS V14.01,2013-01-07 19:48:00,
2013-01-07 14:51:00,36.1,29.3,29.32,NNW,344,3.6,3.6,76,0.00,,,0.00,VWS V14.01,2013-01-07 19:51:00,
2013-01-07 14:52:00,36.1,29.3,29.32,NW,319,5.8,8.1,76,0.00,,,0.00,VWS V14.01,2013-01-07 19:52:00,
2013-01-07 14:53:00,36.1,29.3,29.32,NW,319,5.8,5.8,76,0.00,,,0.00,VWS V14.01,2013-01-07 19:53:00,
2013-01-07 14:56:00,36.0,29.1,29.32,NW,311,7.6,7.6,76,0.00,,,0.00,VWS V14.01,2013-01-07 19:56:00,
2013-01-07 14:57:00,36.0,29.1,29.32,NW,311,7.6,7.6,76,0.00,,,0.00,VWS V14.01,2013-01-07 19:57:00,
2013-01-07 14:58:00,36.0,29.1,29.32,NW,309,2.7,8.3,76,0.00,,,0.00,VWS V14.01,2013-01-07 19:58:00,
2013-01-07 15:01:00,35.8,29.0,29.32,NW,321,6.3,8.1,76,0.00,,,0.00,VWS V14.01,2013-01-07 20:01:00,
2013-01-07 15:02:00,35.8,29.0,29.32,North,353,4.5,6.3,76,0.00,,,0.00,VWS V14.01,2013-01-07 20:02:00,
2013-01-07 15:03:00,35.6,28.8,29.32,North,357,6.3,6.3,76,0.00,,,0.00,VWS V14.01,2013-01-07 20:03:00,
2013-01-07 15:06:00,35.6,28.8,29.32,NNW,331,6.3,6.3,76,0.00,,,0.00,VWS V14.01,2013-01-07 20:06:00,
2013-01-07 15:07:00,35.6,28.8,29.32,NNW,331,6.3,6.3,76,0.00,,,0.00,VWS V14.01,2013-01-07 20:07:00,
2013-01-07 15:08:00,35.6,28.8,29.32,NNW,327,4.0,5.8,76,0.00,,,0.00,VWS V14.01,2013-01-07 20:08:00,
2013-01-07 15:11:00,35.4,28.9,29.32,NNW,338,5.4,5.4,77,0.00,,,0.00,VWS V14.01,2013-01-07 20:11:00,
2013-01-07 15:12:00,35.4,28.9,29.32,NNW,338,5.4,5.4,77,0.00,,,0.00,VWS V14.01,2013-01-07 20:12:00,
2013-01-07 15:13:00,35.4,28.9,29.32,NNW,332,6.7,6.7,77,0.00,,,0.00,VWS V14.01,2013-01-07 20:13:00,
2013-01-07 15:17:00,35.4,28.9,29.32,NNW,344,5.8,5.8,77,0.00,,,0.00,VWS V14.01,2013-01-07 20:17:00,
2013-01-07 15:18:00,35.4,28.9,29.32,NW,325,5.4,5.4,77,0.00,,,0.00,VWS V14.01,2013-01-07 20:18:00,
2013-01-07 15:19:00,35.4,28.9,29.32,NW,310,3.1,5.4,77,0.00,,,0.00,VWS V14.01,2013-01-07 20:19:00,
2013-01-07 15:22:00,35.6,28.8,29.32,North,349,5.4,6.3,76,0.00,,,0.00,VWS V14.01,2013-01-07 20:22:00,
2013-01-07 15:23:00,35.4,28.9,29.32,North,2,5.4,8.3,77,0.00,,,0.00,VWS V14.01,2013-01-07 20:23:00,
2013-01-07 15:24:00,35.4,28.9,29.32,North,2,5.4,5.4,77,0.00,,,0.00,VWS V14.01,2013-01-07 20:24:00,
2013-01-07 15:27:00,35.2,28.8,29.32,NW,305,5.4,6.3,77,0.00,,,0.00,VWS V14.01,2013-01-07 20:27:00,
2013-01-07 15:28:00,35.2,28.8,29.32,NW,305,5.4,5.4,77,0.00,,,0.00,VWS V14.01,2013-01-07 20:28:00,
2013-01-07 15:29:00,35.1,28.6,29.32,NW,305,5.4,5.4,77,0.00,,,0.00,VWS V14.01,2013-01-07 20:29:00,
2013-01-07 15:32:00,35.1,28.6,29.32,NNW,338,3.6,4.0,77,0.00,,,0.00,VWS V14.01,2013-01-07 20:32:00,
2013-01-07 15:33:00,35.1,28.6,29.32,NNW,327,5.4,5.4,77,0.00,,,0.00,VWS V14.01,2013-01-07 20:33:00,
2013-01-07 15:34:00,35.1,28.6,29.32,NW,325,5.8,5.8,77,0.00,,,0.00,VWS V14.01,2013-01-07 20:34:00,
2013-01-07 15:37:00,35.1,28.6,29.32,NNW,330,7.6,7.6,77,0.00,,,0.00,VWS V14.01,2013-01-07 20:37:00,
2013-01-07 15:39:00,35.1,28.6,29.32,NNW,330,7.6,7.6,77,0.00,,,0.00,VWS V14.01,2013-01-07 20:39:00,
2013-01-07 15:42:00,35.2,28.8,29.32,NNW,343,5.8,5.8,77,0.00,,,0.00,VWS V14.01,2013-01-07 20:42:00,
2013-01-07 15:44:00,35.2,28.8,29.32,North,353,10.1,10.1,77,0.00,,,0.00,VWS V14.01,2013-01-07 20:44:00,
2013-01-07 15:47:00,35.4,28.9,29.32,NNW,344,5.8,5.8,77,0.00,,,0.00,VWS V14.01,2013-01-07 20:47:00,
2013-01-07 15:49:00,35.4,28.9,29.32,North,350,6.3,6.3,77,0.00,,,0.00,VWS V14.01,2013-01-07 20:49:00,
2013-01-07 15:52:00,35.6,28.8,29.32,North,349,6.3,6.3,76,0.00,,,0.00,VWS V14.01,2013-01-07 20:52:00,
2013-01-07 15:53:00,35.6,28.8,29.32,North,349,6.3,6.3,76,0.00,,,0.00,VWS V14.01,2013-01-07 20:53:00,
2013-01-07 15:54:00,35.6,28.8,29.32,NNW,342,8.3,8.3,76,0.00,,,0.00,VWS V14.01,2013-01-07 20:54:00,
2013-01-07 15:57:00,35.4,28.9,29.32,NNW,329,7.6,7.6,77,0.00,,,0.00,VWS V14.01,2013-01-07 20:57:00,
2013-01-07 15:58:00,35.4,28.9,29.32,NNW,329,7.6,7.6,77,0.00,,,0.00,VWS V14.01,2013-01-07 20:58:00,
2013-01-07 15:59:00,35.4,28.9,29.32,WNW,297,4.0,4.0,77,0.00,,,0.00,VWS V14.01,2013-01-07 20:59:00,
2013-01-07 16:02:00,35.4,28.9,29.32,NNW,340,5.8,8.1,77,0.00,,,0.00,VWS V14.01,2013-01-07 21:02:00,
2013-01-07 16:03:00,35.4,28.9,29.32,NNW,344,8.1,8.1,77,0.00,,,0.00,VWS V14.01,2013-01-07 21:03:00,
2013-01-07 16:04:00,35.4,28.9,29.32,NNW,344,8.1,8.1,77,0.00,,,0.00,VWS V14.01,2013-01-07 21:04:00,
2013-01-07 16:07:00,35.4,28.9,29.32,NNW,328,6.3,6.3,77,0.00,,,0.00,VWS V14.01,2013-01-07 21:07:00,
2013-01-07 16:08:00,35.4,28.9,29.32,North,353,5.4,6.3,77,0.00,,,0.00,VWS V14.01,2013-01-07 21:08:00,
2013-01-07 16:09:00,35.4,28.9,29.32,NW,321,4.0,5.4,77,0.00,,,0.00,VWS V14.01,2013-01-07 21:09:00,
2013-01-07 16:12:00,35.2,28.8,29.32,NNW,339,3.6,5.8,77,0.00,,,0.00,VWS V14.01,2013-01-07 21:12:00,
2013-01-07 16:14:00,35.2,28.8,29.32,NNW,339,3.6,3.6,77,0.00,,,0.00,VWS V14.01,2013-01-07 21:14:00,
2013-01-07 16:18:00,35.2,28.8,29.32,NNW,333,4.9,4.9,77,0.00,,,0.00,VWS V14.01,2013-01-07 21:18:00,
2013-01-07 16:19:00,35.2,28.8,29.32,NNW,336,4.9,4.9,77,0.00,,,0.00,VWS V14.01,2013-01-07 21:19:00,
2013-01-07 16:23:00,35.1,28.6,29.32,NW,310,4.9,4.9,77,0.00,,,0.00,VWS V14.01,2013-01-07 21:23:00,
2013-01-07 16:24:00,35.2,28.8,29.32,NW,325,5.4,5.4,77,0.00,,,0.00,VWS V14.01,2013-01-07 21:24:00,
2013-01-07 16:28:00,35.4,28.9,29.32,NNW,341,3.1,4.9,77,0.00,,,0.00,VWS V14.01,2013-01-07 21:28:00,
2013-01-07 16:29:00,35.6,29.1,29.32,NNW,335,4.9,4.9,77,0.00,,,0.00,VWS V14.01,2013-01-07 21:29:00,
2013-01-07 16:33:00,35.6,29.1,29.32,North,0,3.1,3.1,77,0.00,,,0.00,VWS V14.01,2013-01-07 21:33:00,
2013-01-07 16:34:00,35.6,29.1,29.32,NNW,343,3.1,3.1,77,0.00,,,0.00,VWS V14.01,2013-01-07 21:34:00,
2013-01-07 16:35:00,35.6,29.1,29.32,NNW,339,3.6,3.6,77,0.00,,,0.00,VWS V14.01,2013-01-07 21:35:00,
2013-01-07 16:38:00,35.6,28.8,29.32,NNW,329,5.4,6.3,76,0.00,,,0.00,VWS V14.01,2013-01-07 21:38:00,
2013-01-07 16:39:00,35.6,28.8,29.32,NNW,328,4.0,5.4,76,0.00,,,0.00,VWS V14.01,2013-01-07 21:39:00,
2013-01-07 16:40:00,35.6,28.8,29.32,North,353,5.4,5.4,76,0.00,,,0.00,VWS V14.01,2013-01-07 21:40:00,
2013-01-07 16:43:00,35.4,28.9,29.32,NNW,344,5.8,5.8,77,0.00,,,0.00,VWS V14.01,2013-01-07 21:43:00,
2013-01-07 16:44:00,35.2,28.8,29.32,NW,318,4.9,5.8,77,0.00,,,0.00,VWS V14.01,2013-01-07 21:44:00,
2013-01-07 16:45:00,35.2,28.8,29.32,NNW,331,6.3,6.3,77,0.00,,,0.00,VWS V14.01,2013-01-07 21:45:00,
2013-01-07 16:48:00,34.9,28.4,29.32,NW,311,3.1,5.4,77,0.00,,,0.00,VWS V14.01,2013-01-07 21:48:00,
2013-01-07 16:49:00,34.7,28.2,29.32,NW,311,3.1,3.1,77,0.00,,,0.00,VWS V14.01,2013-01-07 21:49:00,
2013-01-07 16:50:00,34.7,28.2,29.32,North,0,4.0,4.0,77,0.00,,,0.00,VWS V14.01,2013-01-07 21:50:00,
2013-01-07 16:53:00,34.5,28.1,29.32,NW,324,5.8,5.8,77,0.00,,,0.00,VWS V14.01,2013-01-07 21:53:00,
2013-01-07 16:54:00,34.3,27.9,29.32,NW,304,4.0,4.0,77,0.00,,,0.00,VWS V14.01,2013-01-07 21:54:00,
2013-01-07 16:55:00,34.3,27.9,29.32,NW,325,3.6,3.6,77,0.00,,,0.00,VWS V14.01,2013-01-07 21:55:00,
2013-01-07 16:58:00,34.2,27.7,29.32,North,2,4.9,5.8,77,0.00,,,0.00,VWS V14.01,2013-01-07 21:58:00,
2013-01-07 16:59:00,34.2,27.7,29.32,NW,305,3.1,4.0,77,0.00,,,0.00,VWS V14.01,2013-01-07 21:59:00,
2013-01-07 17:00:00,34.2,27.7,29.32,NW,305,3.1,4.0,77,0.00,,,0.00,VWS V14.01,2013-01-07 22:00:00,
2013-01-07 17:03:00,34.2,27.7,29.32,NNW,332,4.9,4.9,77,0.00,,,0.00,VWS V14.01,2013-01-07 22:03:00,
2013-01-07 17:05:00,34.0,27.5,29.32,NW,320,6.3,6.3,77,0.00,,,0.00,VWS V14.01,2013-01-07 22:05:00,
2013-01-07 17:08:00,34.0,27.5,29.32,WNW,295,5.4,5.4,77,0.00,,,0.00,VWS V14.01,2013-01-07 22:08:00,
2013-01-07 17:10:00,33.8,27.4,29.32,NNW,340,3.6,3.6,77,0.00,,,0.00,VWS V14.01,2013-01-07 22:10:00,
2013-01-07 17:11:00,33.8,27.4,29.32,NNW,337,7.6,7.6,77,0.00,,,0.00,VWS V14.01,2013-01-07 22:11:00,
2013-01-07 17:13:00,33.8,27.4,29.32,NNW,335,5.4,5.4,77,0.00,,,0.00,VWS V14.01,2013-01-07 22:13:00,
2013-01-07 17:15:00,33.6,27.5,29.32,WNW,284,3.6,3.6,78,0.00,,,0.00,VWS V14.01,2013-01-07 22:15:00,
2013-01-07 17:16:00,33.6,27.5,29.32,NNW,329,6.3,6.3,78,0.00,,,0.00,VWS V14.01,2013-01-07 22:16:00,
2013-01-07 17:18:00,33.3,27.1,29.32,NW,310,3.6,4.9,78,0.00,,,0.00,VWS V14.01,2013-01-07 22:18:00,
2013-01-07 17:20:00,33.3,27.1,29.32,NW,310,5.4,5.4,78,0.00,,,0.00,VWS V14.01,2013-01-07 22:20:00,
2013-01-07 17:21:00,33.1,27.0,29.32,NW,326,6.7,6.7,78,0.00,,,0.00,VWS V14.01,2013-01-07 22:21:00,
2013-01-07 17:23:00,32.9,26.8,29.32,NNW,330,3.1,5.4,78,0.00,,,0.00,VWS V14.01,2013-01-07 22:23:00,
2013-01-07 17:25:00,32.7,26.6,29.32,NW,325,3.1,3.1,78,0.00,,,0.00,VWS V14.01,2013-01-07 22:25:00,
2013-01-07 17:26:00,32.7,26.6,29.32,WNW,282,3.6,3.6,78,0.00,,,0.00,VWS V14.01,2013-01-07 22:26:00,
2013-01-07 17:28:00,32.5,26.5,29.32,NNW,345,6.3,6.3,78,0.00,,,0.00,VWS V14.01,2013-01-07 22:28:00,
2013-01-07 17:30:00,32.5,26.5,29.32,West,274,5.8,5.8,78,0.00,,,0.00,VWS V14.01,2013-01-07 22:30:00,
2013-01-07 17:31:00,32.5,26.5,29.32,NW,304,4.0,4.9,78,0.00,,,0.00,VWS V14.01,2013-01-07 22:31:00,
2013-01-07 17:33:00,32.4,26.3,29.32,NNE,13,5.4,5.4,78,0.00,,,0.00,VWS V14.01,2013-01-07 22:33:00,
2013-01-07 17:35:00,32.2,26.1,29.29,NNE,13,5.4,5.4,78,0.00,,,0.00,VWS V14.01,2013-01-07 22:35:00,
2013-01-07 17:36:00,32.0,25.9,29.29,NW,314,4.9,5.4,78,0.00,,,0.00,VWS V14.01,2013-01-07 22:36:00,
2013-01-07 17:39:00,31.8,25.8,29.29,NW,313,4.0,4.0,78,0.00,,,0.00,VWS V14.01,2013-01-07 22:39:00,
2013-01-07 17:40:00,31.8,25.8,29.29,NW,313,3.6,4.0,78,0.00,,,0.00,VWS V14.01,2013-01-07 22:40:00,
2013-01-07 17:41:00,31.8,25.8,29.29,NW,313,3.6,3.6,78,0.00,,,0.00,VWS V14.01,2013-01-07 22:41:00,
2013-01-07 17:44:00,31.5,25.4,29.29,West,280,3.1,6.3,78,0.00,,,0.00,VWS V14.01,2013-01-07 22:44:00,
2013-01-07 17:45:00,31.5,25.4,29.29,WNW,291,3.6,4.0,78,0.00,,,0.00,VWS V14.01,2013-01-07 22:45:00,
2013-01-07 17:46:00,31.3,25.5,29.29,WNW,302,3.1,3.6,79,0.00,,,0.00,VWS V14.01,2013-01-07 22:46:00,
2013-01-07 17:49:00,31.3,25.5,29.29,WNW,293,3.1,3.1,79,0.00,,,0.00,VWS V14.01,2013-01-07 22:49:00,
2013-01-07 17:50:00,31.1,25.4,29.29,WNW,294,3.6,3.6,79,0.00,,,0.00,VWS V14.01,2013-01-07 22:50:00,
2013-01-07 17:51:00,31.1,25.4,29.29,WNW,295,0.0,0.0,79,0.00,,,0.00,VWS V14.01,2013-01-07 22:51:00,
2013-01-07 17:54:00,31.1,25.4,29.29,WNW,295,0.0,0.0,79,0.00,,,0.00,VWS V14.01,2013-01-07 22:54:00,
2013-01-07 17:55:00,31.1,25.4,29.29,WNW,297,2.2,2.2,79,0.00,,,0.00,VWS V14.01,2013-01-07 22:55:00,
2013-01-07 17:57:00,30.9,25.2,29.29,NNW,331,2.7,2.7,79,0.00,,,0.00,VWS V14.01,2013-01-07 22:57:00,
2013-01-07 17:59:00,30.7,25.0,29.29,WNW,297,4.0,4.0,79,0.00,,,0.00,VWS V14.01,2013-01-07 22:59:00,
2013-01-07 18:00:00,30.7,25.0,29.29,NW,325,4.9,4.9,79,0.00,,,0.00,VWS V14.01,2013-01-07 23:00:00,
2013-01-07 18:02:00,30.6,24.8,29.29,NNW,334,3.1,3.1,79,0.00,,,0.00,VWS V14.01,2013-01-07 23:02:00,
2013-01-07 18:04:00,30.6,24.8,29.29,WNW,299,3.1,4.0,79,0.00,,,0.00,VWS V14.01,2013-01-07 23:04:00,
2013-01-07 18:05:00,30.6,24.8,29.29,WNW,299,2.2,3.1,79,0.00,,,0.00,VWS V14.01,2013-01-07 23:05:00,
2013-01-07 18:07:00,30.6,24.8,29.29,WNW,299,2.2,2.2,79,0.00,,,0.00,VWS V14.01,2013-01-07 23:07:00,
2013-01-07 18:09:00,30.4,24.7,29.29,WNW,299,0.0,0.0,79,0.00,,,0.00,VWS V14.01,2013-01-07 23:09:00,
2013-01-07 18:10:00,30.4,24.7,29.29,WNW,299,3.6,3.6,79,0.00,,,0.00,VWS V14.01,2013-01-07 23:10:00,
2013-01-07 18:12:00,30.2,24.8,29.29,NW,308,2.7,4.0,80,0.00,,,0.00,VWS V14.01,2013-01-07 23:12:00,
2013-01-07 18:14:00,30.2,24.8,29.29,NW,308,3.1,3.1,80,0.00,,,0.00,VWS V14.01,2013-01-07 23:14:00,
2013-01-07 18:15:00,30.2,24.8,29.29,WNW,293,2.2,3.1,80,0.00,,,0.00,VWS V14.01,2013-01-07 23:15:00,
2013-01-07 18:16:00,30.2,24.8,29.29,WNW,282,6.3,6.3,80,0.00,,,0.00,VWS V14.01,2013-01-07 23:16:00,
2013-01-07 18:18:00,30.2,24.8,29.29,WNW,285,4.0,4.0,80,0.00,,,0.00,VWS V14.01,2013-01-07 23:18:00,
2013-01-07 18:19:00,30.0,24.6,29.29,WNW,285,0.0,2.7,80,0.00,,,0.00,VWS V14.01,2013-01-07 23:19:00,
2013-01-07 18:20:00,30.0,24.6,29.29,WNW,285,2.2,2.2,80,0.00,,,0.00,VWS V14.01,2013-01-07 23:20:00,
2013-01-07 18:21:00,30.0,24.6,29.29,WNW,285,2.2,2.2,80,0.00,,,0.00,VWS V14.01,2013-01-07 23:21:00,
2013-01-07 18:23:00,30.0,24.6,29.29,NW,315,2.7,2.7,80,0.00,,,0.00,VWS V14.01,2013-01-07 23:23:00,
2013-01-07 18:24:00,30.0,24.6,29.29,NW,315,4.0,4.0,80,0.00,,,0.00,VWS V14.01,2013-01-07 23:24:00,
2013-01-07 18:25:00,30.0,24.6,29.29,NW,315,2.7,4.0,80,0.00,,,0.00,VWS V14.01,2013-01-07 23:25:00,
2013-01-07 18:26:00,30.0,24.6,29.29,NW,314,2.7,2.7,80,0.00,,,0.00,VWS V14.01,2013-01-07 23:26:00,
2013-01-07 18:28:00,29.8,24.4,29.29,West,281,4.0,4.0,80,0.00,,,0.00,VWS V14.01,2013-01-07 23:28:00,
2013-01-07 18:29:00,29.8,24.4,29.29,WNW,284,3.1,3.1,80,0.00,,,0.00,VWS V14.01,2013-01-07 23:29:00,
2013-01-07 18:30:00,29.8,24.4,29.29,WNW,284,3.1,3.1,80,0.00,,,0.00,VWS V14.01,2013-01-07 23:30:00,
2013-01-07 18:31:00,29.7,24.3,29.29,NW,313,3.1,3.6,80,0.00,,,0.00,VWS V14.01,2013-01-07 23:31:00,
2013-01-07 18:33:00,29.7,24.3,29.29,NW,313,0.0,0.0,80,0.00,,,0.00,VWS V14.01,2013-01-07 23:33:00,
2013-01-07 18:34:00,29.7,24.6,29.29,West,264,0.0,2.2,81,0.00,,,0.00,VWS V14.01,2013-01-07 23:34:00,
2013-01-07 18:35:00,29.7,24.6,29.29,West,264,2.2,2.2,81,0.00,,,0.00,VWS V14.01,2013-01-07 23:35:00,
2013-01-07 18:36:00,29.7,24.6,29.29,West,264,2.2,2.2,81,0.00,,,0.00,VWS V14.01,2013-01-07 23:36:00,
2013-01-07 18:38:00,29.5,24.4,29.29,West,264,0.0,0.0,81,0.00,,,0.00,VWS V14.01,2013-01-07 23:38:00,
2013-01-07 18:39:00,29.5,24.4,29.29,West,264,0.0,0.0,81,0.00,,,0.00,VWS V14.01,2013-01-07 23:39:00,
2013-01-07 18:41:00,29.5,24.4,29.29,West,264,0.0,0.0,81,0.00,,,0.00,VWS V14.01,2013-01-07 23:41:00,
2013-01-07 18:43:00,29.1,24.0,29.29,West,264,0.0,0.0,81,0.00,,,0.00,VWS V14.01,2013-01-07 23:43:00,
2013-01-07 18:44:00,28.9,23.9,29.29,West,264,2.2,2.2,81,0.00,,,0.00,VWS V14.01,2013-01-07 23:44:00,
2013-01-07 18:46:00,28.9,23.9,29.29,West,264,2.7,2.7,81,0.00,,,0.00,VWS V14.01,2013-01-07 23:46:00,
2013-01-07 18:48:00,28.6,23.5,29.29,WNW,293,4.9,4.9,81,0.00,,,0.00,VWS V14.01,2013-01-07 23:48:00,
2013-01-07 18:49:00,28.6,23.5,29.29,WNW,293,0.0,0.0,81,0.00,,,0.00,VWS V14.01,2013-01-07 23:49:00,
2013-01-07 18:51:00,28.6,23.5,29.29,West,260,3.1,3.1,81,0.00,,,0.00,VWS V14.01,2013-01-07 23:51:00,
2013-01-07 18:53:00,28.4,23.3,29.29,West,260,2.7,2.7,81,0.00,,,0.00,VWS V14.01,2013-01-07 23:53:00,
2013-01-07 18:55:00,28.2,23.1,29.29,West,260,2.7,2.7,81,0.00,,,0.00,VWS V14.01,2013-01-07 23:55:00,
2013-01-07 18:56:00,28.0,23.0,29.29,West,266,2.2,2.7,81,0.00,,,0.00,VWS V14.01,2013-01-07 23:56:00,
2013-01-07 18:58:00,28.0,23.0,29.29,WNW,300,2.2,4.0,81,0.00,,,0.00,VWS V14.01,2013-01-07 23:58:00,
2013-01-07 18:59:00,28.0,23.3,29.29,SW,229,3.6,3.6,82,0.00,,,0.00,VWS V14.01,2013-01-07 23:59:00,
2013-01-07 19:01:00,28.0,23.3,29.29,SW,229,2.7,2.7,82,0.00,,,0.00,VWS V14.01,2013-01-08 00:01:00,
2013-01-07 19:03:00,28.0,23.3,29.29,SW,229,0.0,0.0,82,0.00,,,0.00,VWS V14.01,2013-01-08 00:03:00,
2013-01-07 19:05:00,28.0,23.3,29.29,SW,236,0.0,0.0,82,0.00,,,0.00,VWS V14.01,2013-01-08 00:05:00,
2013-01-07 19:06:00,27.9,23.1,29.29,SW,236,0.0,0.0,82,0.00,,,0.00,VWS V14.01,2013-01-08 00:06:00,
2013-01-07 19:08:00,27.7,22.9,29.29,West,279,2.2,3.6,82,0.00,,,0.00,VWS V14.01,2013-01-08 00:08:00,
2013-01-07 19:10:00,27.7,22.9,29.29,WNW,287,3.1,3.1,82,0.00,,,0.00,VWS V14.01,2013-01-08 00:10:00,
2013-01-07 19:11:00,27.5,22.7,29.29,WNW,288,3.1,3.6,82,0.00,,,0.00,VWS V14.01,2013-01-08 00:11:00,
2013-01-07 19:13:00,27.5,22.7,29.29,WNW,288,3.6,3.6,82,0.00,,,0.00,VWS V14.01,2013-01-08 00:13:00,
2013-01-07 19:15:00,27.5,22.7,29.29,WNW,288,2.2,2.2,82,0.00,,,0.00,VWS V14.01,2013-01-08 00:15:00,
2013-01-07 19:16:00,27.5,22.7,29.29,WNW,288,3.1,3.1,82,0.00,,,0.00,VWS V14.01,2013-01-08 00:16:00,
2013-01-07 19:18:00,27.3,22.6,29.29,WNW,296,3.6,3.6,82,0.00,,,0.00,VWS V14.01,2013-01-08 00:18:00,
2013-01-07 19:20:00,27.3,22.6,29.29,WNW,296,3.1,3.1,82,0.00,,,0.00,VWS V14.01,2013-01-08 00:20:00,
2013-01-07 19:21:00,27.1,22.7,29.29,WNW,296,3.1,3.1,83,0.00,,,0.00,VWS V14.01,2013-01-08 00:21:00,
2013-01-07 19:22:00,27.0,22.5,29.29,WNW,296,3.1,3.1,83,0.00,,,0.00,VWS V14.01,2013-01-08 00:22:00,
2013-01-07 19:23:00,27.0,22.5,29.29,WNW,296,3.1,3.1,83,0.00,,,0.00,VWS V14.01,2013-01-08 00:23:00,
2013-01-07 19:25:00,27.0,22.5,29.29,WNW,294,3.1,4.0,83,0.00,,,0.00,VWS V14.01,2013-01-08 00:25:00,
2013-01-07 19:26:00,27.0,22.5,29.29,WNW,286,3.6,3.6,83,0.00,,,0.00,VWS V14.01,2013-01-08 00:26:00,
2013-01-07 19:27:00,27.0,22.5,29.29,WNW,286,3.6,3.6,83,0.00,,,0.00,VWS V14.01,2013-01-08 00:27:00,
2013-01-07 19:29:00,26.8,22.3,29.29,WNW,293,2.7,2.7,83,0.00,,,0.00,VWS V14.01,2013-01-08 00:29:00,
2013-01-07 19:30:00,26.8,22.3,29.29,West,268,3.1,3.1,83,0.00,,,0.00,VWS V14.01,2013-01-08 00:30:00,
2013-01-07 19:31:00,26.8,22.3,29.29,WNW,283,3.1,3.1,83,0.00,,,0.00,VWS V14.01,2013-01-08 00:31:00,
2013-01-07 19:32:00,26.8,22.3,29.29,West,281,5.4,5.4,83,0.00,,,0.00,VWS V14.01,2013-01-08 00:32:00,
2013-01-07 19:34:00,26.8,22.3,29.29,West,274,2.7,5.4,83,0.00,,,0.00,VWS V14.01,2013-01-08 00:34:00,
2013-01-07 19:35:00,26.8,22.6,29.29,West,260,2.2,2.7,84,0.00,,,0.00,VWS V14.01,2013-01-08 00:35:00,
2013-01-07 19:36:00,26.8,22.6,29.29,West,260,2.2,2.2,84,0.00,,,0.00,VWS V14.01,2013-01-08 00:36:00,
2013-01-07 19:37:00,26.8,22.6,29.29,West,260,2.2,2.2,84,0.00,,,0.00,VWS V14.01,2013-01-08 00:37:00,
2013-01-07 19:39:00,26.8,22.6,29.29,West,275,5.4,5.4,84,0.00,,,0.00,VWS V14.01,2013-01-08 00:39:00,
2013-01-07 19:40:00,27.0,22.8,29.29,West,268,4.0,4.0,84,0.00,,,0.00,VWS V14.01,2013-01-08 00:40:00,
2013-01-07 19:41:00,27.0,22.8,29.29,West,278,3.6,4.0,84,0.00,,,0.00,VWS V14.01,2013-01-08 00:41:00,
2013-01-07 19:42:00,27.0,22.8,29.29,WSW,249,2.7,3.6,84,0.00,,,0.00,VWS V14.01,2013-01-08 00:42:00,
2013-01-07 19:44:00,27.0,22.8,29.29,WSW,251,2.7,2.7,84,0.00,,,0.00,VWS V14.01,2013-01-08 00:44:00,
2013-01-07 19:45:00,27.0,23.1,29.29,WSW,246,3.1,3.1,85,0.00,,,0.00,VWS V14.01,2013-01-08 00:45:00,
2013-01-07 19:46:00,27.0,23.1,29.29,WNW,284,4.0,4.0,85,0.00,,,0.00,VWS V14.01,2013-01-08 00:46:00,
2013-01-07 19:47:00,27.0,23.1,29.29,West,280,3.1,4.0,85,0.00,,,0.00,VWS V14.01,2013-01-08 00:47:00,
2013-01-07 19:49:00,27.0,23.1,29.29,WNW,292,2.2,2.2,85,0.00,,,0.00,VWS V14.01,2013-01-08 00:49:00,
2013-01-07 19:50:00,27.0,23.1,29.29,WNW,292,0.0,2.2,85,0.00,,,0.00,VWS V14.01,2013-01-08 00:50:00,
2013-01-07 19:51:00,27.0,23.1,29.29,WNW,292,2.2,2.2,85,0.00,,,0.00,VWS V14.01,2013-01-08 00:51:00,
2013-01-07 19:52:00,27.0,23.1,29.29,WNW,292,2.2,2.2,85,0.00,,,0.00,VWS V14.01,2013-01-08 00:52:00,
2013-01-07 19:54:00,27.0,23.1,29.29,WNW,292,0.0,0.0,85,0.00,,,0.00,VWS V14.01,2013-01-08 00:54:00,
2013-01-07 19:55:00,27.0,23.1,29.29,WNW,292,0.0,0.0,85,0.00,,,0.00,VWS V14.01,2013-01-08 00:55:00,
2013-01-07 19:56:00,27.0,23.1,29.29,WNW,292,2.2,2.7,85,0.00,,,0.00,VWS V14.01,2013-01-08 00:56:00,
2013-01-07 19:58:00,26.8,22.9,29.29,WNW,292,2.2,2.2,85,0.00,,,0.00,VWS V14.01,2013-01-08 00:58:00,
2013-01-07 19:59:00,26.8,22.9,29.29,WNW,292,2.2,2.2,85,0.00,,,0.00,VWS V14.01,2013-01-08 00:59:00,
2013-01-07 20:00:00,26.8,22.9,29.29,WNW,292,3.1,3.1,85,0.00,,,0.00,VWS V14.01,2013-01-08 01:00:00,
2013-01-07 20:01:00,26.8,22.9,29.29,WNW,292,2.7,3.1,85,0.00,,,0.00,VWS V14.01,2013-01-08 01:01:00,
2013-01-07 20:03:00,26.8,22.9,29.29,WNW,292,2.7,2.7,85,0.00,,,0.00,VWS V14.01,2013-01-08 01:03:00,
2013-01-07 20:04:00,26.6,23.0,29.29,WNW,292,0.0,3.1,86,0.00,,,0.00,VWS V14.01,2013-01-08 01:04:00,
2013-01-07 20:05:00,26.6,23.0,29.29,WNW,292,2.2,2.2,86,0.00,,,0.00,VWS V14.01,2013-01-08 01:05:00,
2013-01-07 20:06:00,26.6,23.0,29.29,WNW,292,2.7,3.1,86,0.00,,,0.00,VWS V14.01,2013-01-08 01:06:00,
2013-01-07 20:08:00,26.2,22.6,29.29,WNW,292,0.0,2.2,86,0.00,,,0.00,VWS V14.01,2013-01-08 01:08:00,
2013-01-07 20:09:00,26.2,22.6,29.29,WNW,292,0.0,0.0,86,0.00,,,0.00,VWS V14.01,2013-01-08 01:09:00,
2013-01-07 20:10:00,26.1,22.5,29.29,WNW,292,0.0,0.0,86,0.00,,,0.00,VWS V14.01,2013-01-08 01:10:00,
2013-01-07 20:11:00,26.1,22.5,29.29,West,277,3.1,3.1,86,0.00,,,0.00,VWS V14.01,2013-01-08 01:11:00,
2013-01-07 20:13:00,26.1,22.5,29.29,West,278,2.2,2.2,86,0.00,,,0.00,VWS V14.01,2013-01-08 01:13:00,
2013-01-07 20:14:00,26.1,22.5,29.29,West,278,0.0,0.0,86,0.00,,,0.00,VWS V14.01,2013-01-08 01:14:00,
2013-01-07 20:15:00,25.9,22.5,29.29,West,278,0.0,0.0,87,0.00,,,0.00,VWS V14.01,2013-01-08 01:15:00,
2013-01-07 20:16:00,25.9,22.5,29.29,West,278,0.0,0.0,87,0.00,,,0.00,VWS V14.01,2013-01-08 01:16:00,
2013-01-07 20:18:00,25.9,22.5,29.29,WNW,297,5.4,5.4,87,0.00,,,0.00,VWS V14.01,2013-01-08 01:18:00,
2013-01-07 20:19:00,25.9,22.5,29.29,WNW,290,3.6,5.4,87,0.00,,,0.00,VWS V14.01,2013-01-08 01:19:00,
2013-01-07 20:21:00,25.7,22.4,29.29,WNW,291,2.7,2.7,87,0.00,,,0.00,VWS V14.01,2013-01-08 01:21:00,
2013-01-07 20:23:00,25.7,22.4,29.29,NW,318,2.7,3.1,87,0.00,,,0.00,VWS V14.01,2013-01-08 01:23:00,
2013-01-07 20:24:00,25.7,22.4,29.29,NW,319,2.2,2.7,87,0.00,,,0.00,VWS V14.01,2013-01-08 01:24:00,
2013-01-07 20:26:00,25.7,22.4,29.29,NW,318,3.6,3.6,87,0.00,,,0.00,VWS V14.01,2013-01-08 01:26:00,
2013-01-07 20:28:00,25.7,22.4,29.29,NW,317,4.0,4.0,87,0.00,,,0.00,VWS V14.01,2013-01-08 01:28:00,
2013-01-07 20:29:00,25.7,22.4,29.29,NW,317,4.0,4.0,87,0.00,,,0.00,VWS V14.01,2013-01-08 01:29:00,
2013-01-07 20:31:00,25.7,22.4,29.29,NW,314,3.1,3.1,87,0.00,,,0.00,VWS V14.01,2013-01-08 01:31:00,
2013-01-07 20:33:00,25.9,22.5,29.29,WNW,287,3.6,5.8,87,0.00,,,0.00,VWS V14.01,2013-01-08 01:33:00,
2013-01-07 20:34:00,25.9,22.5,29.29,WNW,295,5.4,5.8,87,0.00,,,0.00,VWS V14.01,2013-01-08 01:34:00,
2013-01-07 20:36:00,25.9,22.8,29.26,WNW,295,5.4,5.4,88,0.00,,,0.00,VWS V14.01,2013-01-08 01:36:00,
2013-01-07 20:38:00,25.9,22.8,29.26,NW,323,2.7,2.7,88,0.00,,,0.00,VWS V14.01,2013-01-08 01:38:00,
2013-01-07 20:39:00,25.9,22.8,29.26,West,273,3.1,3.1,88,0.00,,,0.00,VWS V14.01,2013-01-08 01:39:00,
2013-01-07 20:41:00,25.9,22.8,29.26,North,6,0.0,3.1,88,0.00,,,0.00,VWS V14.01,2013-01-08 01:41:00,
2013-01-07 20:44:00,26.1,23.0,29.26,North,6,0.0,0.0,88,0.00,,,0.00,VWS V14.01,2013-01-08 01:44:00,
2013-01-07 20:45:00,26.1,23.0,29.26,North,353,3.1,3.1,88,0.00,,,0.00,VWS V14.01,2013-01-08 01:45:00,
2013-01-07 20:46:00,26.1,23.0,29.26,NW,317,3.1,3.1,88,0.00,,,0.00,VWS V14.01,2013-01-08 01:46:00,
2013-01-07 20:49:00,26.1,23.0,29.26,NW,305,0.0,0.0,88,0.00,,,0.00,VWS V14.01,2013-01-08 01:49:00,
2013-01-07 20:50:00,26.1,23.0,29.26,NW,305,0.0,0.0,88,0.00,,,0.00,VWS V14.01,2013-01-08 01:50:00,
2013-01-07 20:51:00,26.1,23.0,29.29,WNW,303,3.1,3.1,88,0.00,,,0.00,VWS V14.01,2013-01-08 01:51:00,
2013-01-07 20:54:00,26.1,23.0,29.29,WNW,285,4.9,4.9,88,0.00,,,0.00,VWS V14.01,2013-01-08 01:54:00,
2013-01-07 20:55:00,26.1,23.0,29.29,West,272,4.0,4.9,88,0.00,,,0.00,VWS V14.01,2013-01-08 01:55:00,
2013-01-07 20:56:00,26.1,23.0,29.29,West,270,5.8,5.8,88,0.00,,,0.00,VWS V14.01,2013-01-08 01:56:00,
2013-01-07 20:57:00,26.1,23.0,29.29,West,270,5.8,5.8,88,0.00,,,0.00,VWS V14.01,2013-01-08 01:57:00,
2013-01-07 20:59:00,26.1,23.0,29.29,NW,310,2.7,6.3,88,0.00,,,0.00,VWS V14.01,2013-01-08 01:59:00,
2013-01-07 21:00:00,26.1,23.0,29.29,NW,315,5.8,5.8,88,0.00,,,0.00,VWS V14.01,2013-01-08 02:00:00,
2013-01-07 21:01:00,26.1,23.0,29.29,WNW,290,5.4,5.4,88,0.00,,,0.00,VWS V14.01,2013-01-08 02:01:00,
2013-01-07 21:02:00,26.1,23.0,29.29,WNW,290,5.4,5.4,88,0.00,,,0.00,VWS V14.01,2013-01-08 02:02:00,
2013-01-07 21:04:00,26.2,23.2,29.29,West,281,3.6,3.6,88,0.00,,,0.00,VWS V14.01,2013-01-08 02:04:00,
2013-01-07 21:05:00,26.2,23.2,29.26,NW,318,3.6,3.6,88,0.00,,,0.00,VWS V14.01,2013-01-08 02:05:00,
2013-01-07 21:06:00,26.2,23.2,29.26,NW,311,3.6,3.6,88,0.00,,,0.00,VWS V14.01,2013-01-08 02:06:00,
2013-01-07 21:07:00,26.2,23.2,29.26,NW,311,3.6,3.6,88,0.00,,,0.00,VWS V14.01,2013-01-08 02:07:00,
2013-01-07 21:10:00,26.4,23.4,29.26,WNW,301,5.4,5.4,88,0.00,,,0.00,VWS V14.01,2013-01-08 02:10:00,
2013-01-07 21:11:00,26.4,23.4,29.26,North,350,3.1,3.1,88,0.00,,,0.00,VWS V14.01,2013-01-08 02:11:00,
2013-01-07 21:12:00,26.4,23.4,29.26,NW,312,4.0,4.0,88,0.00,,,0.00,VWS V14.01,2013-01-08 02:12:00,
2013-01-07 21:15:00,26.6,23.8,29.26,WNW,288,4.0,4.0,89,0.00,,,0.00,VWS V14.01,2013-01-08 02:15:00,
2013-01-07 21:16:00,26.6,23.8,29.26,NNW,327,5.8,5.8,89,0.00,,,0.00,VWS V14.01,2013-01-08 02:16:00,
2013-01-07 21:17:00,26.8,23.7,29.26,WNW,300,3.6,6.3,88,0.00,,,0.00,VWS V14.01,2013-01-08 02:17:00,
2013-01-07 21:20:00,26.8,23.7,29.26,West,276,3.6,5.4,88,0.00,,,0.00,VWS V14.01,2013-01-08 02:20:00,
2013-01-07 21:21:00,26.8,23.7,29.26,WNW,288,6.3,6.3,88,0.00,,,0.00,VWS V14.01,2013-01-08 02:21:00,
2013-01-07 21:22:00,27.0,23.9,29.26,West,276,5.4,6.3,88,0.00,,,0.00,VWS V14.01,2013-01-08 02:22:00,
2013-01-07 21:25:00,27.0,23.9,29.26,NW,311,3.1,3.1,88,0.00,,,0.00,VWS V14.01,2013-01-08 02:25:00,
2013-01-07 21:26:00,27.0,23.9,29.26,NW,311,3.1,3.1,88,0.00,,,0.00,VWS V14.01,2013-01-08 02:26:00,
2013-01-07 21:27:00,27.0,23.9,29.26,WNW,301,4.0,4.0,88,0.00,,,0.00,VWS V14.01,2013-01-08 02:27:00,
2013-01-07 21:30:00,27.0,23.9,29.26,NNW,333,5.4,5.4,88,0.00,,,0.00,VWS V14.01,2013-01-08 02:30:00,
2013-01-07 21:31:00,26.8,23.7,29.26,NNW,333,5.4,5.4,88,0.00,,,0.00,VWS V14.01,2013-01-08 02:31:00,
2013-01-07 21:32:00,26.8,23.7,29.26,WNW,299,3.6,4.0,88,0.00,,,0.00,VWS V14.01,2013-01-08 02:32:00,
2013-01-07 21:35:00,26.8,23.7,29.26,West,279,4.0,4.0,88,0.00,,,0.00,VWS V14.01,2013-01-08 02:35:00,
2013-01-07 21:36:00,26.8,23.7,29.26,West,279,4.0,4.0,88,0.00,,,0.00,VWS V14.01,2013-01-08 02:36:00,
2013-01-07 21:37:00,26.8,23.7,29.26,WNW,297,5.4,6.3,88,0.00,,,0.00,VWS V14.01,2013-01-08 02:37:00,
2013-01-07 21:38:00,26.8,23.7,29.26,WNW,297,5.8,6.3,88,0.00,,,0.00,VWS V14.01,2013-01-08 02:38:00,
2013-01-07 21:40:00,26.8,23.7,29.26,WNW,283,5.8,5.8,88,0.00,,,0.00,VWS V14.01,2013-01-08 02:40:00,
2013-01-07 21:41:00,26.8,23.7,29.26,WNW,285,6.3,7.6,88,0.00,,,0.00,VWS V14.01,2013-01-08 02:41:00,
2013-01-07 21:42:00,26.8,23.7,29.26,WNW,290,6.3,6.3,88,0.00,,,0.00,VWS V14.01,2013-01-08 02:42:00,
2013-01-07 21:43:00,26.8,23.7,29.26,WNW,290,6.3,6.3,88,0.00,,,0.00,VWS V14.01,2013-01-08 02:43:00,
2013-01-07 21:45:00,26.8,23.7,29.26,NW,305,5.4,5.4,88,0.00,,,0.00,VWS V14.01,2013-01-08 02:45:00,
2013-01-07 21:46:00,26.8,23.7,29.26,WNW,303,5.8,5.8,88,0.00,,,0.00,VWS V14.01,2013-01-08 02:46:00,
2013-01-07 21:47:00,26.8,23.7,29.26,NW,311,5.8,8.7,88,0.00,,,0.00,VWS V14.01,2013-01-08 02:47:00,
2013-01-07 21:48:00,26.8,23.7,29.26,NW,311,5.8,5.8,88,0.00,,,0.00,VWS V14.01,2013-01-08 02:48:00,
2013-01-07 21:50:00,26.8,23.7,29.26,NNW,330,8.7,8.7,88,0.00,,,0.00,VWS V14.01,2013-01-08 02:50:00,
2013-01-07 21:51:00,26.8,23.7,29.26,NW,308,5.4,5.4,88,0.00,,,0.00,VWS V14.01,2013-01-08 02:51:00,
2013-01-07 21:52:00,26.8,23.7,29.23,NW,307,5.4,5.4,88,0.00,,,0.00,VWS V14.01,2013-01-08 02:52:00,
2013-01-07 21:53:00,26.8,24.0,29.23,NW,307,5.4,5.4,89,0.00,,,0.00,VWS V14.01,2013-01-08 02:53:00,
2013-01-07 21:55:00,26.8,24.0,29.23,WNW,283,5.8,5.8,89,0.00,,,0.00,VWS V14.01,2013-01-08 02:55:00,
2013-01-07 21:56:00,26.8,24.0,29.23,NW,310,10.1,10.1,89,0.00,,,0.00,VWS V14.01,2013-01-08 02:56:00,
2013-01-07 21:57:00,26.8,24.0,29.23,WNW,297,7.6,7.6,89,0.00,,,0.00,VWS V14.01,2013-01-08 02:57:00,
2013-01-07 21:58:00,26.8,24.0,29.23,WNW,297,7.6,7.6,89,0.00,,,0.00,VWS V14.01,2013-01-08 02:58:00,
2013-01-07 22:00:00,26.8,24.0,29.23,WNW,287,5.4,8.1,89,0.00,,,0.00,VWS V14.01,2013-01-08 03:00:00,
2013-01-07 22:01:00,26.8,24.0,29.23,WSW,248,5.4,5.4,89,0.00,,,0.00,VWS V14.01,2013-01-08 03:01:00,
2013-01-07 22:02:00,26.8,24.0,29.23,WNW,291,4.0,4.0,89,0.00,,,0.00,VWS V14.01,2013-01-08 03:02:00,
2013-01-07 22:03:00,26.8,24.0,29.23,WNW,282,6.3,6.3,89,0.00,,,0.00,VWS V14.01,2013-01-08 03:03:00,
2013-01-07 22:05:00,26.8,24.0,29.23,NNW,331,10.1,10.1,89,0.00,,,0.00,VWS V14.01,2013-01-08 03:05:00,
2013-01-07 22:07:00,26.8,24.0,29.23,WNW,289,5.4,5.4,89,0.00,,,0.00,VWS V14.01,2013-01-08 03:07:00,
2013-01-07 22:08:00,26.8,24.0,29.23,NW,314,4.0,4.0,89,0.00,,,0.00,VWS V14.01,2013-01-08 03:08:00,
2013-01-07 22:10:00,26.8,24.0,29.26,NW,312,6.3,6.3,89,0.00,,,0.00,VWS V14.01,2013-01-08 03:10:00,
2013-01-07 22:12:00,26.6,23.8,29.26,WNW,292,5.4,5.4,89,0.00,,,0.00,VWS V14.01,2013-01-08 03:12:00,
2013-01-07 22:13:00,26.6,23.8,29.26,NW,304,4.0,5.4,89,0.00,,,0.00,VWS V14.01,2013-01-08 03:13:00,
2013-01-07 22:15:00,26.6,23.8,29.26,NW,322,4.0,4.0,89,0.00,,,0.00,VWS V14.01,2013-01-08 03:15:00,
2013-01-07 22:17:00,26.6,23.8,29.26,NW,322,4.0,4.0,89,0.00,,,0.00,VWS V14.01,2013-01-08 03:17:00,
2013-01-07 22:18:00,26.6,23.8,29.26,WNW,303,4.0,5.4,89,0.00,,,0.00,VWS V14.01,2013-01-08 03:18:00,
2013-01-07 22:20:00,26.6,23.8,29.26,NW,311,4.9,5.8,89,0.00,,,0.00,VWS V14.01,2013-01-08 03:20:00,
2013-01-07 22:22:00,26.6,23.8,29.26,West,272,4.5,4.5,89,0.00,,,0.00,VWS V14.01,2013-01-08 03:22:00,
2013-01-07 22:23:00,26.6,23.8,29.26,West,275,2.7,2.7,89,0.00,,,0.00,VWS V14.01,2013-01-08 03:23:00,
2013-01-07 22:25:00,26.6,23.8,29.26,NW,313,3.6,3.6,89,0.00,,,0.00,VWS V14.01,2013-01-08 03:25:00,
2013-01-07 22:27:00,26.6,23.8,29.26,WNW,301,4.0,4.0,89,0.00,,,0.00,VWS V14.01,2013-01-08 03:27:00,
2013-01-07 22:28:00,26.6,23.8,29.26,WNW,301,4.0,4.0,89,0.00,,,0.00,VWS V14.01,2013-01-08 03:28:00,
2013-01-07 22:30:00,26.6,23.8,29.26,NNW,334,3.1,3.1,89,0.00,,,0.00,VWS V14.01,2013-01-08 03:30:00,
2013-01-07 22:32:00,26.8,24.0,29.26,WNW,297,2.7,3.1,89,0.00,,,0.00,VWS V14.01,2013-01-08 03:32:00,
2013-01-07 22:33:00,26.8,24.0,29.26,West,266,3.1,4.0,89,0.00,,,0.20,VWS V14.01,2013-01-08 03:33:00,
2013-01-07 22:36:00,26.6,23.8,29.23,NW,306,10.1,10.1,89,0.00,,,0.00,VWS V14.01,2013-01-08 03:36:00,
2013-01-07 22:37:00,26.6,23.8,29.23,West,274,5.8,5.8,89,0.00,,,0.00,VWS V14.01,2013-01-08 03:37:00,
2013-01-07 22:38:00,26.6,23.8,29.23,West,274,5.8,5.8,89,0.00,,,0.00,VWS V14.01,2013-01-08 03:38:00,
2013-01-07 22:41:00,26.8,24.0,29.23,West,280,4.9,4.9,89,0.00,,,0.00,VWS V14.01,2013-01-08 03:41:00,
2013-01-07 22:42:00,26.8,24.0,29.23,NNW,332,5.4,5.4,89,0.00,,,0.00,VWS V14.01,2013-01-08 03:42:00,
2013-01-07 22:43:00,26.8,24.0,29.23,NNW,332,5.4,5.4,89,0.00,,,0.00,VWS V14.01,2013-01-08 03:43:00,
2013-01-07 22:46:00,26.8,24.0,29.23,NW,311,4.0,4.0,89,0.00,,,0.00,VWS V14.01,2013-01-08 03:46:00,
2013-01-07 22:47:00,26.8,24.0,29.23,WSW,244,4.0,4.0,89,0.00,,,0.00,VWS V14.01,2013-01-08 03:47:00,
2013-01-07 22:48:00,27.0,24.2,29.23,West,269,8.1,8.1,89,0.00,,,0.00,VWS V14.01,2013-01-08 03:48:00,
2013-01-07 22:49:00,27.0,24.2,29.23,NW,310,5.8,8.1,89,0.00,,,0.00,VWS V14.01,2013-01-08 03:49:00,
2013-01-07 22:51:00,27.0,24.2,29.23,NW,326,3.6,3.6,89,0.00,,,0.00,VWS V14.01,2013-01-08 03:51:00,
2013-01-07 22:52:00,27.0,24.2,29.23,NNW,329,5.4,5.4,89,0.00,,,0.00,VWS V14.01,2013-01-08 03:52:00,
2013-01-07 22:53:00,27.0,23.9,29.23,West,274,6.3,6.3,88,0.00,,,0.00,VWS V14.01,2013-01-08 03:53:00,
2013-01-07 22:54:00,27.0,23.9,29.23,West,274,6.3,6.3,88,0.00,,,0.00,VWS V14.01,2013-01-08 03:54:00,
2013-01-07 22:57:00,27.0,23.9,29.23,NNW,327,3.6,3.6,88,0.00,,,0.00,VWS V14.01,2013-01-08 03:57:00,
2013-01-07 22:58:00,27.0,23.9,29.23,North,0,3.1,3.1,88,0.00,,,0.00,VWS V14.01,2013-01-08 03:58:00,
2013-01-07 22:59:00,27.0,23.9,29.23,North,0,3.1,3.1,88,0.00,,,0.00,VWS V14.01,2013-01-08 03:59:00,
2013-01-07 23:02:00,27.0,23.9,29.23,NW,310,3.1,4.0,88,0.00,,,0.00,VWS V14.01,2013-01-08 04:02:00,
2013-01-07 23:03:00,27.0,23.9,29.23,SW,228,3.6,3.6,88,0.00,,,0.00,VWS V14.01,2013-01-08 04:03:00,
2013-01-07 23:04:00,27.0,23.9,29.23,NNW,327,4.9,4.9,88,0.00,,,0.00,VWS V14.01,2013-01-08 04:04:00,
2013-01-07 23:07:00,27.0,23.9,29.23,WNW,300,3.6,3.6,88,0.00,,,0.00,VWS V14.01,2013-01-08 04:07:00,
2013-01-07 23:09:00,27.0,23.9,29.23,NW,326,2.7,2.7,88,0.00,,,0.00,VWS V14.01,2013-01-08 04:09:00,
2013-01-07 23:12:00,27.1,24.1,29.23,WNW,282,7.6,7.6,88,0.00,,,0.00,VWS V14.01,2013-01-08 04:12:00,
2013-01-07 23:13:00,27.1,24.1,29.23,WNW,299,3.1,3.1,88,0.00,,,0.00,VWS V14.01,2013-01-08 04:13:00,
2013-01-07 23:14:00,27.1,24.1,29.23,WNW,299,3.6,3.6,88,0.00,,,0.00,VWS V14.01,2013-01-08 04:14:00,
2013-01-07 23:17:00,27.0,23.9,29.26,NNW,333,6.3,6.3,88,0.00,,,0.00,VWS V14.01,2013-01-08 04:17:00,
2013-01-07 23:18:00,27.0,23.9,29.26,North,2,3.1,3.1,88,0.00,,,0.00,VWS V14.01,2013-01-08 04:18:00,
2013-01-07 23:19:00,27.0,23.9,29.26,North,2,3.6,3.6,88,0.00,,,0.00,VWS V14.01,2013-01-08 04:19:00,
2013-01-07 23:22:00,27.0,23.9,29.26,NW,307,2.7,4.0,88,0.00,,,0.00,VWS V14.01,2013-01-08 04:22:00,
2013-01-07 23:23:00,27.0,23.9,29.26,NW,307,2.7,2.7,88,0.00,,,0.00,VWS V14.01,2013-01-08 04:23:00,
2013-01-07 23:24:00,27.0,23.9,29.26,NW,314,3.6,3.6,88,0.00,,,0.00,VWS V14.01,2013-01-08 04:24:00,
2013-01-07 23:27:00,27.1,24.1,29.26,NW,317,6.3,6.3,88,0.00,,,0.00,VWS V14.01,2013-01-08 04:27:00,
2013-01-07 23:28:00,27.1,24.1,29.26,NW,317,6.3,6.3,88,0.00,,,0.00,VWS V14.01,2013-01-08 04:28:00,
2013-01-07 23:29:00,27.1,24.1,29.26,NW,317,2.2,2.2,88,0.00,,,0.00,VWS V14.01,2013-01-08 04:29:00,
2013-01-07 23:32:00,27.1,24.1,29.26,NW,317,2.7,3.6,88,0.00,,,0.00,VWS V14.01,2013-01-08 04:32:00,
2013-01-07 23:33:00,27.1,24.1,29.26,NW,317,2.7,2.7,88,0.00,,,0.00,VWS V14.01,2013-01-08 04:33:00,
2013-01-07 23:34:00,27.1,24.1,29.26,NW,313,2.7,2.7,88,0.00,,,0.00,VWS V14.01,2013-01-08 04:34:00,
2013-01-07 23:37:00,27.1,23.8,29.26,NW,314,2.7,2.7,87,0.00,,,0.00,VWS V14.01,2013-01-08 04:37:00,
2013-01-07 23:38:00,27.1,23.8,29.26,NW,314,3.6,3.6,87,0.00,,,0.00,VWS V14.01,2013-01-08 04:38:00,
2013-01-07 23:39:00,27.1,23.8,29.26,WNW,293,3.1,3.6,87,0.00,,,0.00,VWS V14.01,2013-01-08 04:39:00,
2013-01-07 23:42:00,27.1,24.1,29.26,NW,312,5.8,5.8,88,0.00,,,0.00,VWS V14.01,2013-01-08 04:42:00,
2013-01-07 23:43:00,27.1,24.1,29.26,NW,312,3.6,3.6,88,0.00,,,0.00,VWS V14.01,2013-01-08 04:43:00,
2013-01-07 23:44:00,27.1,23.8,29.26,NW,313,2.7,2.7,87,0.00,,,0.00,VWS V14.01,2013-01-08 04:44:00,
2013-01-07 23:45:00,27.1,23.8,29.26,NW,313,2.2,2.7,87,0.00,,,0.00,VWS V14.01,2013-01-08 04:45:00,
2013-01-07 23:48:00,27.1,23.8,29.26,NW,311,3.1,3.1,87,0.00,,,0.00,VWS V14.01,2013-01-08 04:48:00,
2013-01-07 23:50:00,27.1,23.8,29.26,WNW,302,2.7,2.7,87,0.00,,,0.00,VWS V14.01,2013-01-08 04:50:00,
2013-01-07 23:53:00,27.0,23.6,29.26,NW,317,3.6,3.6,87,0.00,,,0.00,VWS V14.01,2013-01-08 04:53:00,
2013-01-07 23:54:00,27.0,23.6,29.26,NW,317,3.6,3.6,87,0.00,,,0.00,VWS V14.01,2013-01-08 04:54:00,
2013-01-07 23:55:00,27.0,23.6,29.26,North,6,4.0,4.0,87,0.00,,,0.00,VWS V14.01,2013-01-08 04:55:00,
2013-01-07 23:58:00,27.0,23.6,29.26,NW,326,2.7,2.7,87,0.00,,,0.00,VWS V14.01,2013-01-08 04:58:00,
2013-01-07 23:59:00,27.0,23.6,29.26,NW,323,3.1,3.1,87,0.00,,,0.00,VWS V14.01,2013-01-08 04:59:00,